Wetterdaten: Sonntag, 08.03.2015
Datum Zeit Temp. Aussen +5cm Feuchte Auss Luftdruck Regen Sonnenschein Regendauer Solar Windben
08.03.2015 00:00 5,6 C 2,8 C 77 % 1026,2 hPa 0,0 l/m 0 min 0 min 0 W/m 12,6 km/h (3 Bft)
08.03.2015 00:02 5,6 C 3,3 C 78 % 1026,2 hPa 0,0 l/m 0 min 0 min 0 W/m 10,5 km/h (2 Bft)
08.03.2015 00:06 5,6 C 3,3 C 78 % 1026,2 hPa 0,0 l/m 0 min 0 min 0 W/m 12,6 km/h (3 Bft)
08.03.2015 00:08 5,6 C 3,3 C 78 % 1026,2 hPa 0,0 l/m 0 min 0 min 0 W/m 12,6 km/h (3 Bft)
08.03.2015 00:10 5,5 C 3,3 C 78 % 1026,3 hPa 0,0 l/m 0 min 0 min 0 W/m 10,5 km/h (2 Bft)
08.03.2015 00:12 5,5 C 3,3 C 79 % 1026,2 hPa 0,0 l/m 0 min 0 min 0 W/m 12,6 km/h (3 Bft)
08.03.2015 00:14 5,5 C 3,3 C 79 % 1026,2 hPa 0,0 l/m 0 min 0 min 0 W/m 12,6 km/h (3 Bft)
08.03.2015 00:16 5,5 C 3,3 C 79 % 1026,2 hPa 0,0 l/m 0 min 0 min 0 W/m 10,5 km/h (2 Bft)
08.03.2015 00:18 5,5 C 3,3 C 79 % 1026,2 hPa 0,0 l/m 0 min 0 min 0 W/m 8,4 km/h (2 Bft)
08.03.2015 00:20 5,6 C 3,3 C 79 % 1026,2 hPa 0,0 l/m 0 min 0 min 0 W/m 10,5 km/h (2 Bft)
08.03.2015 00:22 5,5 C 3,3 C 79 % 1026,3 hPa 0,0 l/m 0 min 0 min 0 W/m 10,5 km/h (2 Bft)
08.03.2015 00:24 5,5 C 3,3 C 79 % 1026,2 hPa 0,0 l/m 0 min 0 min 0 W/m 14,6 km/h (3 Bft)
08.03.2015 00:26 5,5 C 3,3 C 80 % 1026,2 hPa 0,0 l/m 0 min 0 min 0 W/m 14,6 km/h (3 Bft)
08.03.2015 00:28 5,5 C 3,3 C 80 % 1026,2 hPa 0,0 l/m 0 min 0 min 0 W/m 14,6 km/h (3 Bft)
08.03.2015 00:30 5,5 C 3,3 C 80 % 1026,2 hPa 0,0 l/m 0 min 0 min 0 W/m 14,6 km/h (3 Bft)
08.03.2015 00:32 5,5 C 3,3 C 80 % 1026,2 hPa 0,0 l/m 0 min 0 min 0 W/m 14,6 km/h (3 Bft)
08.03.2015 00:34 5,5 C 3,3 C 80 % 1026,2 hPa 0,0 l/m 0 min 0 min 0 W/m 8,4 km/h (2 Bft)
08.03.2015 00:36 5,5 C 3,3 C 80 % 1026,2 hPa 0,0 l/m 0 min 0 min 0 W/m 14,6 km/h (3 Bft)
08.03.2015 00:38 5,4 C 3,3 C 80 % 1026,2 hPa 0,0 l/m 0 min 0 min 0 W/m 12,6 km/h (3 Bft)
08.03.2015 00:40 5,4 C 3,3 C 80 % 1026,1 hPa 0,0 l/m 0 min 0 min 0 W/m 10,5 km/h (2 Bft)
08.03.2015 00:42 5,4 C 3,3 C 81 % 1026,1 hPa 0,0 l/m 0 min 0 min 0 W/m 16,7 km/h (3 Bft)
08.03.2015 00:44 5,4 C 3,3 C 81 % 1026,1 hPa 0,0 l/m 0 min 0 min 0 W/m 14,6 km/h (3 Bft)
08.03.2015 00:46 5,4 C 3,3 C 81 % 1026,1 hPa 0,0 l/m 0 min 0 min 0 W/m 14,6 km/h (3 Bft)
08.03.2015 00:48 5,4 C 3,3 C 81 % 1026,1 hPa 0,0 l/m 0 min 0 min 0 W/m 12,6 km/h (3 Bft)
08.03.2015 00:50 5,4 C 3,3 C 81 % 1026,1 hPa 0,0 l/m 0 min 0 min 0 W/m 10,5 km/h (2 Bft)
08.03.2015 00:52 5,4 C 3,3 C 81 % 1026,1 hPa 0,0 l/m 0 min 0 min 0 W/m 12,6 km/h (3 Bft)
08.03.2015 00:54 5,3 C 3,3 C 81 % 1026,1 hPa 0,0 l/m 0 min 0 min 0 W/m 18,8 km/h (3 Bft)
08.03.2015 00:56 5,3 C 3,3 C 81 % 1026,1 hPa 0,0 l/m 0 min 0 min 0 W/m 12,6 km/h (3 Bft)
08.03.2015 00:58 5,3 C 3,3 C 81 % 1026,0 hPa 0,0 l/m 0 min 0 min 0 W/m 16,7 km/h (3 Bft)
08.03.2015 01:00 5,3 C 2,8 C 81 % 1026,1 hPa 0,0 l/m 0 min 0 min 0 W/m 16,7 km/h (3 Bft)
08.03.2015 01:02 5,3 C 3,3 C 81 % 1026,0 hPa 0,0 l/m 0 min 0 min 0 W/m 18,8 km/h (3 Bft)
08.03.2015 01:04 5,3 C 3,3 C 82 % 1026,0 hPa 0,0 l/m 0 min 0 min 0 W/m 16,7 km/h (3 Bft)
08.03.2015 01:06 5,3 C 2,8 C 82 % 1026,0 hPa 0,0 l/m 0 min 0 min 0 W/m 14,6 km/h (3 Bft)
08.03.2015 01:08 5,3 C 2,8 C 82 % 1026,0 hPa 0,0 l/m 0 min 0 min 0 W/m 14,6 km/h (3 Bft)
08.03.2015 01:10 5,3 C 2,8 C 82 % 1026,0 hPa 0,0 l/m 0 min 0 min 0 W/m 16,7 km/h (3 Bft)
08.03.2015 01:12 5,3 C 2,8 C 82 % 1026,0 hPa 0,0 l/m 0 min 0 min 0 W/m 14,6 km/h (3 Bft)
08.03.2015 01:14 5,3 C 2,8 C 82 % 1026,0 hPa 0,0 l/m 0 min 0 min 0 W/m 16,7 km/h (3 Bft)
08.03.2015 01:16 5,3 C 2,8 C 82 % 1026,0 hPa 0,0 l/m 0 min 0 min 0 W/m 12,6 km/h (3 Bft)
08.03.2015 01:18 5,3 C 3,3 C 82 % 1026,0 hPa 0,0 l/m 0 min 0 min 0 W/m 14,6 km/h (3 Bft)
08.03.2015 01:20 5,2 C 2,8 C 82 % 1026,0 hPa 0,0 l/m 0 min 0 min 0 W/m 14,6 km/h (3 Bft)
08.03.2015 01:22 5,2 C 2,8 C 82 % 1026,0 hPa 0,0 l/m 0 min 0 min 0 W/m 14,6 km/h (3 Bft)
08.03.2015 01:24 5,2 C 2,8 C 82 % 1026,0 hPa 0,0 l/m 0 min 0 min 0 W/m 16,7 km/h (3 Bft)
08.03.2015 01:26 5,2 C 3,3 C 82 % 1026,0 hPa 0,0 l/m 0 min 0 min 0 W/m 18,8 km/h (3 Bft)
08.03.2015 01:28 5,2 C 3,3 C 82 % 1026,0 hPa 0,0 l/m 0 min 0 min 0 W/m 14,6 km/h (3 Bft)
08.03.2015 01:30 5,2 C 3,3 C 82 % 1026,0 hPa 0,0 l/m 0 min 0 min 0 W/m 20,9 km/h (4 Bft)
08.03.2015 01:32 5,2 C 3,3 C 82 % 1026,0 hPa 0,0 l/m 0 min 0 min 0 W/m 18,8 km/h (3 Bft)
08.03.2015 01:34 5,2 C 3,3 C 82 % 1026,0 hPa 0,0 l/m 0 min 0 min 0 W/m 16,7 km/h (3 Bft)
08.03.2015 01:36 5,2 C 3,3 C 82 % 1026,0 hPa 0,0 l/m 0 min 0 min 0 W/m 16,7 km/h (3 Bft)
08.03.2015 01:38 5,2 C 3,3 C 82 % 1026,0 hPa 0,0 l/m 0 min 0 min 0 W/m 16,7 km/h (3 Bft)
08.03.2015 01:40 5,1 C 2,8 C 82 % 1025,9 hPa 0,0 l/m 0 min 0 min 0 W/m 14,6 km/h (3 Bft)
08.03.2015 01:42 5,1 C 2,8 C 82 % 1025,9 hPa 0,0 l/m 0 min 0 min 0 W/m 14,6 km/h (3 Bft)
08.03.2015 01:44 5,1 C 2,8 C 82 % 1026,0 hPa 0,0 l/m 0 min 0 min 0 W/m 12,6 km/h (3 Bft)
08.03.2015 01:46 5,1 C 2,8 C 82 % 1026,0 hPa 0,0 l/m 0 min 0 min 0 W/m 14,6 km/h (3 Bft)
08.03.2015 01:48 5,1 C 2,8 C 82 % 1025,9 hPa 0,0 l/m 0 min 0 min 0 W/m 18,8 km/h (3 Bft)
08.03.2015 01:50 5,1 C 2,8 C 83 % 1025,9 hPa 0,0 l/m 0 min 0 min 0 W/m 14,6 km/h (3 Bft)
08.03.2015 01:52 5,0 C 2,8 C 83 % 1025,9 hPa 0,0 l/m 0 min 0 min 0 W/m 14,6 km/h (3 Bft)
08.03.2015 01:54 5,0 C 2,8 C 83 % 1025,9 hPa 0,0 l/m 0 min 0 min 0 W/m 16,7 km/h (3 Bft)
08.03.2015 01:56 5,0 C 2,8 C 83 % 1025,9 hPa 0,0 l/m 0 min 0 min 0 W/m 16,7 km/h (3 Bft)
08.03.2015 01:58 4,9 C 2,8 C 83 % 1025,9 hPa 0,0 l/m 0 min 0 min 0 W/m 12,6 km/h (3 Bft)
08.03.2015 02:00 4,9 C 2,8 C 83 % 1025,9 hPa 0,0 l/m 0 min 0 min 0 W/m 14,6 km/h (3 Bft)
08.03.2015 02:02 4,9 C 2,8 C 83 % 1026,0 hPa 0,0 l/m 0 min 0 min 0 W/m 18,8 km/h (3 Bft)
08.03.2015 02:04 4,9 C 2,8 C 83 % 1026,0 hPa 0,0 l/m 0 min 0 min 0 W/m 16,7 km/h (3 Bft)
08.03.2015 02:06 4,9 C 2,8 C 83 % 1026,0 hPa 0,0 l/m 0 min 0 min 0 W/m 18,8 km/h (3 Bft)
08.03.2015 02:08 4,9 C 2,8 C 83 % 1026,0 hPa 0,0 l/m 0 min 0 min 0 W/m 16,7 km/h (3 Bft)
08.03.2015 02:10 4,9 C 2,8 C 83 % 1026,0 hPa 0,0 l/m 0 min 0 min 0 W/m 14,6 km/h (3 Bft)
08.03.2015 02:12 4,9 C 2,8 C 83 % 1025,9 hPa 0,0 l/m 0 min 0 min 0 W/m 18,8 km/h (3 Bft)
08.03.2015 02:14 4,9 C 2,8 C 83 % 1026,0 hPa 0,0 l/m 0 min 0 min 0 W/m 20,9 km/h (4 Bft)
08.03.2015 02:16 4,9 C 2,8 C 83 % 1025,9 hPa 0,0 l/m 0 min 0 min 0 W/m 16,7 km/h (3 Bft)
08.03.2015 02:18 4,9 C 2,8 C 83 % 1025,9 hPa 0,0 l/m 0 min 0 min 0 W/m 20,9 km/h (4 Bft)
08.03.2015 02:20 4,9 C 2,8 C 83 % 1025,9 hPa 0,0 l/m 0 min 0 min 0 W/m 18,8 km/h (3 Bft)
08.03.2015 02:22 4,9 C 2,8 C 83 % 1025,9 hPa 0,0 l/m 0 min 0 min 0 W/m 14,6 km/h (3 Bft)
08.03.2015 02:24 4,8 C 2,8 C 83 % 1025,9 hPa 0,0 l/m 0 min 0 min 0 W/m 12,6 km/h (3 Bft)
08.03.2015 02:26 4,8 C 2,8 C 83 % 1025,9 hPa 0,0 l/m 0 min 0 min 0 W/m 16,7 km/h (3 Bft)
08.03.2015 02:28 4,8 C 2,8 C 83 % 1025,9 hPa 0,0 l/m 0 min 0 min 0 W/m 18,8 km/h (3 Bft)
08.03.2015 02:30 4,8 C 2,8 C 83 % 1025,8 hPa 0,0 l/m 0 min 0 min 0 W/m 20,9 km/h (4 Bft)
08.03.2015 02:32 4,8 C 2,8 C 83 % 1025,8 hPa 0,0 l/m 0 min 0 min 0 W/m 16,7 km/h (3 Bft)
08.03.2015 02:34 4,8 C 2,8 C 83 % 1025,8 hPa 0,0 l/m 0 min 0 min 0 W/m 16,7 km/h (3 Bft)
08.03.2015 02:36 4,8 C 2,8 C 83 % 1025,8 hPa 0,0 l/m 0 min 0 min 0 W/m 18,8 km/h (3 Bft)
08.03.2015 02:38 4,8 C 2,8 C 83 % 1025,8 hPa 0,0 l/m 0 min 0 min 0 W/m 14,6 km/h (3 Bft)
08.03.2015 02:40 4,8 C 2,8 C 83 % 1025,8 hPa 0,0 l/m 0 min 0 min 0 W/m 18,8 km/h (3 Bft)
08.03.2015 02:42 4,8 C 2,8 C 83 % 1025,8 hPa 0,0 l/m 0 min 0 min 0 W/m 18,8 km/h (3 Bft)
08.03.2015 02:44 4,8 C 2,8 C 83 % 1025,8 hPa 0,0 l/m 0 min 0 min 0 W/m 14,6 km/h (3 Bft)
08.03.2015 02:46 4,8 C 2,8 C 83 % 1025,8 hPa 0,0 l/m 0 min 0 min 0 W/m 16,7 km/h (3 Bft)
08.03.2015 02:48 4,8 C 2,8 C 83 % 1025,8 hPa 0,0 l/m 0 min 0 min 0 W/m 14,6 km/h (3 Bft)
08.03.2015 02:50 4,8 C 2,8 C 83 % 1025,8 hPa 0,0 l/m 0 min 0 min 0 W/m 20,9 km/h (4 Bft)
08.03.2015 02:52 4,8 C 2,8 C 83 % 1025,8 hPa 0,0 l/m 0 min 0 min 0 W/m 20,9 km/h (4 Bft)
08.03.2015 02:54 4,8 C 2,8 C 83 % 1025,8 hPa 0,0 l/m 0 min 0 min 0 W/m 16,7 km/h (3 Bft)
08.03.2015 02:56 4,8 C 2,8 C 83 % 1025,8 hPa 0,0 l/m 0 min 0 min 0 W/m 20,9 km/h (4 Bft)
08.03.2015 02:58 4,8 C 2,8 C 83 % 1025,8 hPa 0,0 l/m 0 min 0 min 0 W/m 16,7 km/h (3 Bft)
08.03.2015 03:00 4,8 C 2,8 C 83 % 1025,8 hPa 0,0 l/m 0 min 0 min 0 W/m 16,7 km/h (3 Bft)
08.03.2015 03:02 4,8 C 2,8 C 83 % 1025,7 hPa 0,0 l/m 0 min 0 min 0 W/m 18,8 km/h (3 Bft)
08.03.2015 03:04 4,8 C 2,8 C 83 % 1025,7 hPa 0,0 l/m 0 min 0 min 0 W/m 14,6 km/h (3 Bft)
08.03.2015 03:06 4,7 C 2,8 C 83 % 1025,6 hPa 0,0 l/m 0 min 0 min 0 W/m 12,6 km/h (3 Bft)
08.03.2015 03:08 4,7 C 2,8 C 83 % 1025,7 hPa 0,0 l/m 0 min 0 min 0 W/m 14,6 km/h (3 Bft)
08.03.2015 03:10 4,7 C 2,8 C 83 % 1025,6 hPa 0,0 l/m 0 min 0 min 0 W/m 18,8 km/h (3 Bft)
08.03.2015 03:12 4,7 C 2,8 C 83 % 1025,5 hPa 0,0 l/m 0 min 0 min 0 W/m 14,6 km/h (3 Bft)
08.03.2015 03:14 4,7 C 2,8 C 83 % 1025,6 hPa 0,0 l/m 0 min 0 min 0 W/m 16,7 km/h (3 Bft)
08.03.2015 03:16 4,7 C 2,8 C 83 % 1025,5 hPa 0,0 l/m 0 min 0 min 0 W/m 14,6 km/h (3 Bft)
08.03.2015 03:18 4,7 C 2,8 C 83 % 1025,5 hPa 0,0 l/m 0 min 0 min 0 W/m 16,7 km/h (3 Bft)
08.03.2015 03:20 4,6 C 2,2 C 83 % 1025,6 hPa 0,0 l/m 0 min 0 min 0 W/m 14,6 km/h (3 Bft)
08.03.2015 03:22 4,6 C 2,2 C 83 % 1025,5 hPa 0,0 l/m 0 min 0 min 0 W/m 16,7 km/h (3 Bft)
08.03.2015 03:24 4,6 C 2,2 C 83 % 1025,5 hPa 0,0 l/m 0 min 0 min 0 W/m 16,7 km/h (3 Bft)
08.03.2015 03:26 4,6 C 2,8 C 83 % 1025,5 hPa 0,0 l/m 0 min 0 min 0 W/m 18,8 km/h (3 Bft)
08.03.2015 03:28 4,5 C 2,8 C 84 % 1025,5 hPa 0,0 l/m 0 min 0 min 0 W/m 18,8 km/h (3 Bft)
08.03.2015 03:30 4,5 C 2,2 C 84 % 1025,4 hPa 0,0 l/m 0 min 0 min 0 W/m 16,7 km/h (3 Bft)
08.03.2015 03:32 4,5 C 2,2 C 84 % 1025,4 hPa 0,0 l/m 0 min 0 min 0 W/m 14,6 km/h (3 Bft)
08.03.2015 03:34 4,5 C 2,2 C 84 % 1025,3 hPa 0,0 l/m 0 min 0 min 0 W/m 14,6 km/h (3 Bft)
08.03.2015 03:36 4,4 C 2,2 C 84 % 1025,4 hPa 0,0 l/m 0 min 0 min 0 W/m 14,6 km/h (3 Bft)
08.03.2015 03:38 4,4 C 2,2 C 84 % 1025,3 hPa 0,0 l/m 0 min 0 min 0 W/m 16,7 km/h (3 Bft)
08.03.2015 03:40 4,4 C 2,2 C 84 % 1025,2 hPa 0,0 l/m 0 min 0 min 0 W/m 14,6 km/h (3 Bft)
08.03.2015 03:42 4,4 C 2,2 C 84 % 1025,2 hPa 0,0 l/m 0 min 0 min 0 W/m 14,6 km/h (3 Bft)
08.03.2015 03:44 4,4 C 2,2 C 84 % 1025,2 hPa 0,0 l/m 0 min 0 min 0 W/m 16,7 km/h (3 Bft)
08.03.2015 03:46 4,4 C 2,2 C 84 % 1025,2 hPa 0,0 l/m 0 min 0 min 0 W/m 14,6 km/h (3 Bft)
08.03.2015 03:48 4,3 C 2,2 C 84 % 1025,1 hPa 0,0 l/m 0 min 0 min 0 W/m 16,7 km/h (3 Bft)
08.03.2015 03:50 4,3 C 2,2 C 84 % 1025,1 hPa 0,0 l/m 0 min 0 min 0 W/m 10,5 km/h (2 Bft)
08.03.2015 03:52 4,3 C 2,2 C 84 % 1025,1 hPa 0,0 l/m 0 min 0 min 0 W/m 12,6 km/h (3 Bft)
08.03.2015 03:54 4,3 C 2,2 C 84 % 1025,1 hPa 0,0 l/m 0 min 0 min 0 W/m 14,6 km/h (3 Bft)
08.03.2015 03:56 4,3 C 2,2 C 84 % 1025,1 hPa 0,0 l/m 0 min 0 min 0 W/m 16,7 km/h (3 Bft)
08.03.2015 03:58 4,2 C 2,2 C 84 % 1025,1 hPa 0,0 l/m 0 min 0 min 0 W/m 12,6 km/h (3 Bft)
08.03.2015 04:00 4,2 C 2,2 C 84 % 1025,2 hPa 0,0 l/m 0 min 0 min 0 W/m 12,6 km/h (3 Bft)
08.03.2015 04:02 4,2 C 2,2 C 84 % 1025,1 hPa 0,0 l/m 0 min 0 min 0 W/m 10,5 km/h (2 Bft)
08.03.2015 04:04 4,2 C 2,2 C 84 % 1025,1 hPa 0,0 l/m 0 min 0 min 0 W/m 10,5 km/h (2 Bft)
08.03.2015 04:06 4,2 C 2,2 C 84 % 1025,1 hPa 0,0 l/m 0 min 0 min 0 W/m 12,6 km/h (3 Bft)
08.03.2015 04:08 4,2 C 2,2 C 84 % 1025,0 hPa 0,0 l/m 0 min 0 min 0 W/m 10,5 km/h (2 Bft)
08.03.2015 04:10 4,2 C 2,2 C 84 % 1024,9 hPa 0,0 l/m 0 min 0 min 0 W/m 16,7 km/h (3 Bft)
08.03.2015 04:12 4,1 C 2,2 C 84 % 1025,0 hPa 0,0 l/m 0 min 0 min 0 W/m 14,6 km/h (3 Bft)
08.03.2015 04:14 4,1 C 2,2 C 84 % 1024,9 hPa 0,0 l/m 0 min 0 min 0 W/m 14,6 km/h (3 Bft)
08.03.2015 04:16 4,1 C 2,2 C 84 % 1024,9 hPa 0,0 l/m 0 min 0 min 0 W/m 12,6 km/h (3 Bft)
08.03.2015 04:18 4,1 C 2,2 C 84 % 1024,8 hPa 0,0 l/m 0 min 0 min 0 W/m 14,6 km/h (3 Bft)
08.03.2015 04:20 4,1 C 2,2 C 84 % 1024,8 hPa 0,0 l/m 0 min 0 min 0 W/m 12,6 km/h (3 Bft)
08.03.2015 04:22 4,1 C 2,2 C 85 % 1024,8 hPa 0,0 l/m 0 min 0 min 0 W/m 14,6 km/h (3 Bft)
08.03.2015 04:24 4,0 C 1,7 C 85 % 1024,8 hPa 0,0 l/m 0 min 0 min 0 W/m 8,4 km/h (2 Bft)
08.03.2015 04:26 4,0 C 1,7 C 85 % 1024,8 hPa 0,0 l/m 0 min 0 min 0 W/m 12,6 km/h (3 Bft)
08.03.2015 04:28 4,0 C 1,7 C 85 % 1024,7 hPa 0,0 l/m 0 min 0 min 0 W/m 12,6 km/h (3 Bft)
08.03.2015 04:30 4,0 C 1,7 C 85 % 1024,8 hPa 0,0 l/m 0 min 0 min 0 W/m 12,6 km/h (3 Bft)
08.03.2015 04:32 3,9 C 1,7 C 85 % 1024,8 hPa 0,0 l/m 0 min 0 min 0 W/m 12,6 km/h (3 Bft)
08.03.2015 04:34 3,9 C 1,7 C 85 % 1024,7 hPa 0,0 l/m 0 min 0 min 0 W/m 12,6 km/h (3 Bft)
08.03.2015 04:36 3,9 C 1,7 C 85 % 1024,7 hPa 0,0 l/m 0 min 0 min 0 W/m 10,5 km/h (2 Bft)
08.03.2015 04:38 3,9 C 1,7 C 85 % 1024,7 hPa 0,0 l/m 0 min 0 min 0 W/m 10,5 km/h (2 Bft)
08.03.2015 04:40 3,9 C 1,7 C 85 % 1024,6 hPa 0,0 l/m 0 min 0 min 0 W/m 10,5 km/h (2 Bft)
08.03.2015 04:42 3,9 C 1,7 C 85 % 1024,6 hPa 0,0 l/m 0 min 0 min 0 W/m 12,6 km/h (3 Bft)
08.03.2015 04:44 3,9 C 1,7 C 85 % 1024,6 hPa 0,0 l/m 0 min 0 min 0 W/m 10,5 km/h (2 Bft)
08.03.2015 04:46 3,8 C 1,7 C 85 % 1024,7 hPa 0,0 l/m 0 min 0 min 0 W/m 8,4 km/h (2 Bft)
08.03.2015 04:48 3,8 C 1,7 C 85 % 1024,7 hPa 0,0 l/m 0 min 0 min 0 W/m 10,5 km/h (2 Bft)
08.03.2015 04:50 3,8 C 1,7 C 85 % 1024,6 hPa 0,0 l/m 0 min 0 min 0 W/m 10,5 km/h (2 Bft)
08.03.2015 04:52 3,8 C 1,7 C 85 % 1024,6 hPa 0,0 l/m 0 min 0 min 0 W/m 10,5 km/h (2 Bft)
08.03.2015 04:54 3,8 C 1,7 C 85 % 1024,6 hPa 0,0 l/m 0 min 0 min 0 W/m 12,6 km/h (3 Bft)
08.03.2015 04:56 3,7 C 1,7 C 85 % 1024,6 hPa 0,0 l/m 0 min 0 min 0 W/m 12,6 km/h (3 Bft)
08.03.2015 04:58 3,7 C 1,7 C 85 % 1024,6 hPa 0,0 l/m 0 min 0 min 0 W/m 12,6 km/h (3 Bft)
08.03.2015 05:00 3,7 C 1,7 C 85 % 1024,6 hPa 0,0 l/m 0 min 0 min 0 W/m 14,6 km/h (3 Bft)
08.03.2015 05:02 3,7 C 1,7 C 85 % 1024,6 hPa 0,0 l/m 0 min 0 min 0 W/m 10,5 km/h (2 Bft)
08.03.2015 05:04 3,7 C 1,7 C 85 % 1024,6 hPa 0,0 l/m 0 min 0 min 0 W/m 10,5 km/h (2 Bft)
08.03.2015 05:06 3,7 C 1,7 C 85 % 1024,6 hPa 0,0 l/m 0 min 0 min 0 W/m 12,6 km/h (3 Bft)
08.03.2015 05:08 3,7 C 1,7 C 86 % 1024,6 hPa 0,0 l/m 0 min 0 min 0 W/m 10,5 km/h (2 Bft)
08.03.2015 05:10 3,6 C 1,7 C 85 % 1024,6 hPa 0,0 l/m 0 min 0 min 0 W/m 14,6 km/h (3 Bft)
08.03.2015 05:12 3,6 C 1,7 C 86 % 1024,6 hPa 0,0 l/m 0 min 0 min 0 W/m 14,6 km/h (3 Bft)
08.03.2015 05:14 3,6 C 1,7 C 85 % 1024,6 hPa 0,0 l/m 0 min 0 min 0 W/m 12,6 km/h (3 Bft)
08.03.2015 05:16 3,6 C 1,7 C 86 % 1024,6 hPa 0,0 l/m 0 min 0 min 0 W/m 10,5 km/h (2 Bft)
08.03.2015 05:18 3,6 C 1,7 C 86 % 1024,6 hPa 0,0 l/m 0 min 0 min 0 W/m 10,5 km/h (2 Bft)
08.03.2015 05:20 3,6 C 1,7 C 86 % 1024,6 hPa 0,0 l/m 0 min 0 min 0 W/m 14,6 km/h (3 Bft)
08.03.2015 05:22 3,6 C 1,7 C 86 % 1024,6 hPa 0,0 l/m 0 min 0 min 0 W/m 12,6 km/h (3 Bft)
08.03.2015 05:24 3,6 C 1,7 C 86 % 1024,6 hPa 0,0 l/m 0 min 0 min 0 W/m 10,5 km/h (2 Bft)
08.03.2015 05:26 3,6 C 1,7 C 86 % 1024,6 hPa 0,0 l/m 0 min 0 min 0 W/m 12,6 km/h (3 Bft)
08.03.2015 05:28 3,5 C 1,7 C 86 % 1024,6 hPa 0,0 l/m 0 min 0 min 0 W/m 12,6 km/h (3 Bft)
08.03.2015 05:30 3,5 C 1,7 C 86 % 1024,7 hPa 0,0 l/m 0 min 0 min 0 W/m 14,6 km/h (3 Bft)
08.03.2015 05:32 3,5 C 1,7 C 86 % 1024,6 hPa 0,0 l/m 0 min 0 min 0 W/m 12,6 km/h (3 Bft)
08.03.2015 05:34 3,5 C 1,7 C 86 % 1024,6 hPa 0,0 l/m 0 min 0 min 0 W/m 10,5 km/h (2 Bft)
08.03.2015 05:36 3,5 C 1,7 C 86 % 1024,6 hPa 0,0 l/m 0 min 0 min 0 W/m 12,6 km/h (3 Bft)
08.03.2015 05:38 3,5 C 1,7 C 86 % 1024,6 hPa 0,0 l/m 0 min 0 min 0 W/m 12,6 km/h (3 Bft)
08.03.2015 05:40 3,4 C 1,7 C 86 % 1024,6 hPa 0,0 l/m 0 min 0 min 0 W/m 12,6 km/h (3 Bft)
08.03.2015 05:42 3,4 C 1,7 C 86 % 1024,6 hPa 0,0 l/m 0 min 0 min 0 W/m 12,6 km/h (3 Bft)
08.03.2015 05:44 3,4 C 1,7 C 86 % 1024,6 hPa 0,0 l/m 0 min 0 min 0 W/m 16,7 km/h (3 Bft)
08.03.2015 05:46 3,5 C 1,7 C 86 % 1024,6 hPa 0,0 l/m 0 min 0 min 0 W/m 16,7 km/h (3 Bft)
08.03.2015 05:48 3,4 C 1,7 C 86 % 1024,6 hPa 0,0 l/m 0 min 0 min 0 W/m 16,7 km/h (3 Bft)
08.03.2015 05:50 3,4 C 1,7 C 86 % 1024,6 hPa 0,0 l/m 0 min 0 min 0 W/m 14,6 km/h (3 Bft)
08.03.2015 05:52 3,4 C 1,7 C 87 % 1024,6 hPa 0,0 l/m 0 min 0 min 0 W/m 20,9 km/h (4 Bft)
08.03.2015 05:54 3,4 C 1,7 C 87 % 1024,5 hPa 0,0 l/m 0 min 0 min 0 W/m 14,6 km/h (3 Bft)
08.03.2015 05:56 3,4 C 1,7 C 87 % 1024,5 hPa 0,0 l/m 0 min 0 min 0 W/m 14,6 km/h (3 Bft)
08.03.2015 05:58 3,5 C 1,7 C 86 % 1024,4 hPa 0,0 l/m 0 min 0 min 0 W/m 12,6 km/h (3 Bft)
08.03.2015 06:00 3,5 C 1,7 C 86 % 1024,5 hPa 0,0 l/m 0 min 0 min 0 W/m 12,6 km/h (3 Bft)
08.03.2015 06:02 3,5 C 1,7 C 86 % 1024,4 hPa 0,0 l/m 0 min 0 min 0 W/m 14,6 km/h (3 Bft)
08.03.2015 06:04 3,4 C 1,7 C 86 % 1024,4 hPa 0,0 l/m 0 min 0 min 0 W/m 12,6 km/h (3 Bft)
08.03.2015 06:06 3,4 C 1,7 C 86 % 1024,4 hPa 0,0 l/m 0 min 0 min 0 W/m 12,6 km/h (3 Bft)
08.03.2015 06:08 3,4 C 1,7 C 86 % 1024,5 hPa 0,0 l/m 0 min 0 min 0 W/m 14,6 km/h (3 Bft)
08.03.2015 06:10 3,4 C 1,7 C 86 % 1024,5 hPa 0,0 l/m 0 min 0 min 0 W/m 10,5 km/h (2 Bft)
08.03.2015 06:12 3,4 C 1,7 C 86 % 1024,5 hPa 0,0 l/m 0 min 0 min 0 W/m 14,6 km/h (3 Bft)
08.03.2015 06:14 3,4 C 1,7 C 86 % 1024,5 hPa 0,0 l/m 0 min 0 min 0 W/m 10,5 km/h (2 Bft)
08.03.2015 06:16 3,4 C 1,7 C 87 % 1024,4 hPa 0,0 l/m 0 min 0 min 0 W/m 18,8 km/h (3 Bft)
08.03.2015 06:18 3,4 C 1,7 C 87 % 1024,4 hPa 0,0 l/m 0 min 0 min 0 W/m 12,6 km/h (3 Bft)
08.03.2015 06:20 3,4 C 1,7 C 87 % 1024,4 hPa 0,0 l/m 0 min 0 min 0 W/m 12,6 km/h (3 Bft)
08.03.2015 06:22 3,4 C 1,7 C 86 % 1024,4 hPa 0,0 l/m 0 min 0 min 0 W/m 16,7 km/h (3 Bft)
08.03.2015 06:24 3,4 C 1,7 C 86 % 1024,5 hPa 0,0 l/m 0 min 0 min 0 W/m 14,6 km/h (3 Bft)
08.03.2015 06:26 3,4 C 1,7 C 86 % 1024,5 hPa 0,0 l/m 0 min 0 min 0 W/m 12,6 km/h (3 Bft)
08.03.2015 06:28 3,4 C 1,7 C 86 % 1024,5 hPa 0,0 l/m 0 min 0 min 0 W/m 10,5 km/h (2 Bft)
08.03.2015 06:30 3,4 C 1,7 C 86 % 1024,4 hPa 0,0 l/m 0 min 0 min 0 W/m 14,6 km/h (3 Bft)
08.03.2015 06:32 3,4 C 1,7 C 86 % 1024,4 hPa 0,0 l/m 0 min 0 min 0 W/m 12,6 km/h (3 Bft)
08.03.2015 06:34 3,4 C 1,7 C 86 % 1024,4 hPa 0,0 l/m 0 min 0 min 0 W/m 16,7 km/h (3 Bft)
08.03.2015 06:36 3,4 C 1,7 C 86 % 1024,4 hPa 0,0 l/m 0 min 0 min 0 W/m 14,6 km/h (3 Bft)
08.03.2015 06:38 3,4 C 1,7 C 86 % 1024,4 hPa 0,0 l/m 0 min 0 min 0 W/m 10,5 km/h (2 Bft)
08.03.2015 06:40 3,3 C 1,7 C 86 % 1024,4 hPa 0,0 l/m 0 min 0 min 0 W/m 14,6 km/h (3 Bft)
08.03.2015 06:42 3,3 C 1,7 C 86 % 1024,4 hPa 0,0 l/m 0 min 0 min 0 W/m 14,6 km/h (3 Bft)
08.03.2015 06:44 3,3 C 1,7 C 86 % 1024,3 hPa 0,0 l/m 0 min 0 min 0 W/m 16,7 km/h (3 Bft)
08.03.2015 06:46 3,3 C 1,7 C 86 % 1024,3 hPa 0,0 l/m 0 min 0 min 0 W/m 10,5 km/h (2 Bft)
08.03.2015 06:48 3,3 C 1,7 C 86 % 1024,3 hPa 0,0 l/m 0 min 0 min 0 W/m 10,5 km/h (2 Bft)
08.03.2015 06:50 3,3 C 1,7 C 86 % 1024,3 hPa 0,0 l/m 0 min 0 min 0 W/m 10,5 km/h (2 Bft)
08.03.2015 06:52 3,3 C 1,1 C 86 % 1024,3 hPa 0,0 l/m 0 min 0 min 0 W/m 12,6 km/h (3 Bft)
08.03.2015 06:54 3,3 C 1,1 C 86 % 1024,3 hPa 0,0 l/m 0 min 0 min 0 W/m 20,9 km/h (4 Bft)
08.03.2015 06:56 3,3 C 1,1 C 86 % 1024,3 hPa 0,0 l/m 0 min 0 min 0 W/m 12,6 km/h (3 Bft)
08.03.2015 06:58 3,3 C 1,7 C 87 % 1024,3 hPa 0,0 l/m 0 min 0 min 0 W/m 16,7 km/h (3 Bft)
08.03.2015 07:00 3,3 C 1,1 C 87 % 1024,3 hPa 0,0 l/m 0 min 0 min 4 W/m 10,5 km/h (2 Bft)
08.03.2015 07:02 3,3 C 1,1 C 87 % 1024,3 hPa 0,0 l/m 0 min 0 min 6 W/m 12,6 km/h (3 Bft)
08.03.2015 07:04 3,3 C 1,1 C 87 % 1024,3 hPa 0,0 l/m 0 min 0 min 7 W/m 12,6 km/h (3 Bft)
08.03.2015 07:06 3,2 C 1,7 C 87 % 1024,3 hPa 0,0 l/m 0 min 0 min 9 W/m 14,6 km/h (3 Bft)
08.03.2015 07:08 3,2 C 1,7 C 87 % 1024,3 hPa 0,0 l/m 0 min 0 min 10 W/m 12,6 km/h (3 Bft)
08.03.2015 07:10 3,2 C 1,7 C 87 % 1024,3 hPa 0,0 l/m 0 min 0 min 11 W/m 10,5 km/h (2 Bft)
08.03.2015 07:12 3,2 C 1,7 C 87 % 1024,3 hPa 0,0 l/m 0 min 0 min 13 W/m 16,7 km/h (3 Bft)
08.03.2015 07:14 3,2 C 1,7 C 87 % 1024,3 hPa 0,0 l/m 0 min 0 min 15 W/m 14,6 km/h (3 Bft)
08.03.2015 07:16 3,2 C 1,7 C 87 % 1024,3 hPa 0,0 l/m 2 min 0 min 19 W/m 12,6 km/h (3 Bft)
08.03.2015 07:18 3,2 C 1,7 C 87 % 1024,4 hPa 0,0 l/m 2 min 0 min 21 W/m 14,6 km/h (3 Bft)
08.03.2015 07:20 3,2 C 1,7 C 87 % 1024,3 hPa 0,0 l/m 2 min 0 min 22 W/m 23,0 km/h (4 Bft)
08.03.2015 07:22 3,2 C 1,7 C 87 % 1024,3 hPa 0,0 l/m 2 min 0 min 24 W/m 12,6 km/h (3 Bft)
08.03.2015 07:24 3,2 C 1,7 C 87 % 1024,3 hPa 0,0 l/m 2 min 0 min 26 W/m 16,7 km/h (3 Bft)
08.03.2015 07:26 3,2 C 1,7 C 87 % 1024,3 hPa 0,0 l/m 2 min 0 min 29 W/m 18,8 km/h (3 Bft)
08.03.2015 07:28 3,3 C 1,7 C 87 % 1024,4 hPa 0,0 l/m 2 min 0 min 32 W/m 16,7 km/h (3 Bft)
08.03.2015 07:30 3,3 C 1,7 C 87 % 1024,3 hPa 0,0 l/m 2 min 0 min 35 W/m 16,7 km/h (3 Bft)
08.03.2015 07:32 3,3 C 1,7 C 87 % 1024,3 hPa 0,0 l/m 2 min 0 min 38 W/m 14,6 km/h (3 Bft)
08.03.2015 07:34 3,3 C 1,7 C 87 % 1024,3 hPa 0,0 l/m 2 min 0 min 41 W/m 16,7 km/h (3 Bft)
08.03.2015 07:36 3,3 C 1,7 C 87 % 1024,3 hPa 0,0 l/m 2 min 0 min 43 W/m 23,0 km/h (4 Bft)
08.03.2015 07:38 3,3 C 1,7 C 87 % 1024,3 hPa 0,0 l/m 2 min 0 min 48 W/m 12,6 km/h (3 Bft)
08.03.2015 07:40 3,3 C 1,7 C 87 % 1024,4 hPa 0,0 l/m 2 min 0 min 54 W/m 12,6 km/h (3 Bft)
08.03.2015 07:42 3,3 C 2,2 C 87 % 1024,3 hPa 0,0 l/m 2 min 0 min 58 W/m 14,6 km/h (3 Bft)
08.03.2015 07:44 3,4 C 2,2 C 87 % 1024,3 hPa 0,0 l/m 2 min 0 min 61 W/m 14,6 km/h (3 Bft)
08.03.2015 07:46 3,4 C 2,2 C 87 % 1024,3 hPa 0,0 l/m 2 min 0 min 64 W/m 16,7 km/h (3 Bft)
08.03.2015 07:48 3,4 C 2,2 C 87 % 1024,4 hPa 0,0 l/m 2 min 0 min 68 W/m 14,6 km/h (3 Bft)
08.03.2015 07:50 3,4 C 2,2 C 87 % 1024,4 hPa 0,0 l/m 2 min 0 min 78 W/m 14,6 km/h (3 Bft)
08.03.2015 07:52 3,4 C 2,2 C 87 % 1024,5 hPa 0,0 l/m 2 min 0 min 82 W/m 20,9 km/h (4 Bft)
08.03.2015 07:54 3,5 C 2,2 C 87 % 1024,4 hPa 0,0 l/m 2 min 0 min 83 W/m 14,6 km/h (3 Bft)
08.03.2015 07:56 3,5 C 2,2 C 87 % 1024,5 hPa 0,0 l/m 2 min 0 min 85 W/m 14,6 km/h (3 Bft)
08.03.2015 07:58 3,6 C 2,2 C 87 % 1024,5 hPa 0,0 l/m 2 min 0 min 89 W/m 10,5 km/h (2 Bft)
08.03.2015 08:00 3,6 C 2,2 C 87 % 1024,4 hPa 0,0 l/m 2 min 0 min 93 W/m 18,8 km/h (3 Bft)
08.03.2015 08:02 3,6 C 2,2 C 87 % 1024,4 hPa 0,0 l/m 2 min 0 min 97 W/m 16,7 km/h (3 Bft)
08.03.2015 08:04 3,6 C 2,2 C 87 % 1024,5 hPa 0,0 l/m 2 min 0 min 100 W/m 16,7 km/h (3 Bft)
08.03.2015 08:06 3,7 C 2,2 C 87 % 1024,4 hPa 0,0 l/m 2 min 0 min 105 W/m 14,6 km/h (3 Bft)
08.03.2015 08:08 3,7 C 2,2 C 86 % 1024,5 hPa 0,0 l/m 2 min 0 min 113 W/m 16,7 km/h (3 Bft)
08.03.2015 08:10 3,7 C 2,2 C 86 % 1024,4 hPa 0,0 l/m 2 min 0 min 119 W/m 16,7 km/h (3 Bft)
08.03.2015 08:12 3,7 C 2,8 C 86 % 1024,5 hPa 0,0 l/m 2 min 0 min 128 W/m 14,6 km/h (3 Bft)
08.03.2015 08:14 3,8 C 2,8 C 86 % 1024,5 hPa 0,0 l/m 2 min 0 min 135 W/m 16,7 km/h (3 Bft)
08.03.2015 08:16 3,8 C 2,8 C 86 % 1024,5 hPa 0,0 l/m 2 min 0 min 144 W/m 16,7 km/h (3 Bft)
08.03.2015 08:18 3,8 C 2,8 C 86 % 1024,5 hPa 0,0 l/m 2 min 0 min 150 W/m 14,6 km/h (3 Bft)
08.03.2015 08:20 3,9 C 2,8 C 86 % 1024,5 hPa 0,0 l/m 2 min 0 min 161 W/m 14,6 km/h (3 Bft)
08.03.2015 08:22 3,9 C 2,8 C 86 % 1024,5 hPa 0,0 l/m 2 min 0 min 165 W/m 12,6 km/h (3 Bft)
08.03.2015 08:24 3,9 C 2,8 C 86 % 1024,6 hPa 0,0 l/m 2 min 0 min 168 W/m 16,7 km/h (3 Bft)
08.03.2015 08:26 4,0 C 2,8 C 86 % 1024,6 hPa 0,0 l/m 2 min 0 min 172 W/m 12,6 km/h (3 Bft)
08.03.2015 08:28 4,0 C 2,8 C 86 % 1024,6 hPa 0,0 l/m 2 min 0 min 178 W/m 14,6 km/h (3 Bft)
08.03.2015 08:30 4,1 C 2,8 C 86 % 1024,6 hPa 0,0 l/m 2 min 0 min 185 W/m 14,6 km/h (3 Bft)
08.03.2015 08:32 4,1 C 2,8 C 86 % 1024,5 hPa 0,0 l/m 2 min 0 min 196 W/m 12,6 km/h (3 Bft)
08.03.2015 08:34 4,2 C 3,3 C 85 % 1024,6 hPa 0,0 l/m 2 min 0 min 203 W/m 12,6 km/h (3 Bft)
08.03.2015 08:36 4,2 C 3,3 C 85 % 1024,6 hPa 0,0 l/m 2 min 0 min 210 W/m 12,6 km/h (3 Bft)
08.03.2015 08:38 4,3 C 3,3 C 85 % 1024,6 hPa 0,0 l/m 2 min 0 min 215 W/m 12,6 km/h (3 Bft)
08.03.2015 08:40 4,3 C 3,3 C 85 % 1024,5 hPa 0,0 l/m 2 min 0 min 222 W/m 10,5 km/h (2 Bft)
08.03.2015 08:42 4,4 C 3,3 C 85 % 1024,6 hPa 0,0 l/m 2 min 0 min 228 W/m 16,7 km/h (3 Bft)
08.03.2015 08:44 4,4 C 3,3 C 85 % 1024,6 hPa 0,0 l/m 2 min 0 min 233 W/m 14,6 km/h (3 Bft)
08.03.2015 08:46 4,5 C 3,3 C 85 % 1024,6 hPa 0,0 l/m 2 min 0 min 238 W/m 18,8 km/h (3 Bft)
08.03.2015 08:48 4,5 C 3,3 C 85 % 1024,5 hPa 0,0 l/m 2 min 0 min 247 W/m 14,6 km/h (3 Bft)
08.03.2015 08:50 4,6 C 3,3 C 85 % 1024,6 hPa 0,0 l/m 2 min 0 min 251 W/m 18,8 km/h (3 Bft)
08.03.2015 08:52 4,7 C 3,9 C 85 % 1024,5 hPa 0,0 l/m 2 min 0 min 258 W/m 23,0 km/h (4 Bft)
08.03.2015 08:54 4,7 C 3,9 C 84 % 1024,5 hPa 0,0 l/m 2 min 0 min 263 W/m 16,7 km/h (3 Bft)
08.03.2015 08:56 4,8 C 3,9 C 84 % 1024,6 hPa 0,0 l/m 2 min 0 min 271 W/m 20,9 km/h (4 Bft)
08.03.2015 08:58 4,9 C 3,9 C 84 % 1024,5 hPa 0,0 l/m 2 min 0 min 277 W/m 14,6 km/h (3 Bft)
08.03.2015 09:00 4,9 C 3,9 C 84 % 1024,6 hPa 0,0 l/m 2 min 0 min 284 W/m 20,9 km/h (4 Bft)
08.03.2015 09:02 5,0 C 3,9 C 84 % 1024,6 hPa 0,0 l/m 2 min 0 min 284 W/m 20,9 km/h (4 Bft)
08.03.2015 09:04 5,1 C 3,9 C 84 % 1024,5 hPa 0,0 l/m 2 min 0 min 274 W/m 16,7 km/h (3 Bft)
08.03.2015 09:06 5,2 C 4,4 C 84 % 1024,5 hPa 0,0 l/m 2 min 0 min 286 W/m 20,9 km/h (4 Bft)
08.03.2015 09:08 5,3 C 4,4 C 83 % 1024,5 hPa 0,0 l/m 2 min 0 min 287 W/m 12,6 km/h (3 Bft)
08.03.2015 09:10 5,4 C 4,4 C 83 % 1024,6 hPa 0,0 l/m 2 min 0 min 289 W/m 14,6 km/h (3 Bft)
08.03.2015 09:12 5,6 C 4,4 C 83 % 1024,5 hPa 0,0 l/m 2 min 0 min 300 W/m 20,9 km/h (4 Bft)
08.03.2015 09:14 5,7 C 4,4 C 83 % 1024,5 hPa 0,0 l/m 2 min 0 min 313 W/m 12,6 km/h (3 Bft)
08.03.2015 09:16 5,8 C 4,4 C 82 % 1024,6 hPa 0,0 l/m 2 min 0 min 318 W/m 16,7 km/h (3 Bft)
08.03.2015 09:18 6,0 C 4,4 C 82 % 1024,5 hPa 0,0 l/m 2 min 0 min 323 W/m 25,1 km/h (4 Bft)
08.03.2015 09:20 6,1 C 4,4 C 81 % 1024,5 hPa 0,0 l/m 2 min 0 min 328 W/m 16,7 km/h (3 Bft)
08.03.2015 09:22 6,3 C 4,4 C 81 % 1024,5 hPa 0,0 l/m 2 min 0 min 333 W/m 16,7 km/h (3 Bft)
08.03.2015 09:24 6,4 C 4,4 C 80 % 1024,5 hPa 0,0 l/m 2 min 0 min 336 W/m 18,8 km/h (3 Bft)
08.03.2015 09:26 6,5 C 5,0 C 80 % 1024,5 hPa 0,0 l/m 2 min 0 min 342 W/m 16,7 km/h (3 Bft)
08.03.2015 09:28 6,7 C 5,0 C 79 % 1024,5 hPa 0,0 l/m 2 min 0 min 348 W/m 12,6 km/h (3 Bft)
08.03.2015 09:30 6,8 C 5,0 C 79 % 1024,6 hPa 0,0 l/m 2 min 0 min 350 W/m 18,8 km/h (3 Bft)
08.03.2015 09:32 6,9 C 5,0 C 78 % 1024,5 hPa 0,0 l/m 2 min 0 min 353 W/m 14,6 km/h (3 Bft)
08.03.2015 09:34 7,1 C 5,0 C 77 % 1024,5 hPa 0,0 l/m 2 min 0 min 361 W/m 12,6 km/h (3 Bft)
08.03.2015 09:36 7,2 C 5,0 C 77 % 1024,5 hPa 0,0 l/m 2 min 0 min 365 W/m 14,6 km/h (3 Bft)
08.03.2015 09:38 7,4 C 5,6 C 76 % 1024,5 hPa 0,0 l/m 2 min 0 min 370 W/m 14,6 km/h (3 Bft)
08.03.2015 09:40 7,5 C 5,6 C 76 % 1024,5 hPa 0,0 l/m 2 min 0 min 377 W/m 12,6 km/h (3 Bft)
08.03.2015 09:42 7,6 C 5,6 C 75 % 1024,5 hPa 0,0 l/m 2 min 0 min 381 W/m 16,7 km/h (3 Bft)
08.03.2015 09:44 7,8 C 5,6 C 75 % 1024,5 hPa 0,0 l/m 2 min 0 min 385 W/m 16,7 km/h (3 Bft)
08.03.2015 09:46 7,9 C 5,6 C 74 % 1024,5 hPa 0,0 l/m 2 min 0 min 391 W/m 16,7 km/h (3 Bft)
08.03.2015 09:48 8,0 C 5,6 C 74 % 1024,6 hPa 0,0 l/m 2 min 0 min 395 W/m 14,6 km/h (3 Bft)
08.03.2015 09:50 8,1 C 6,1 C 74 % 1024,6 hPa 0,0 l/m 2 min 0 min 400 W/m 10,5 km/h (2 Bft)
08.03.2015 09:52 8,3 C 6,1 C 73 % 1024,5 hPa 0,0 l/m 2 min 0 min 405 W/m 16,7 km/h (3 Bft)
08.03.2015 09:54 8,3 C 6,1 C 73 % 1024,5 hPa 0,0 l/m 2 min 0 min 409 W/m 14,6 km/h (3 Bft)
08.03.2015 09:56 8,5 C 6,1 C 72 % 1024,6 hPa 0,0 l/m 2 min 0 min 415 W/m 14,6 km/h (3 Bft)
08.03.2015 09:58 8,7 C 6,7 C 72 % 1024,6 hPa 0,0 l/m 2 min 0 min 420 W/m 14,6 km/h (3 Bft)
08.03.2015 10:00 8,8 C 6,7 C 72 % 1024,5 hPa 0,0 l/m 2 min 0 min 424 W/m 10,5 km/h (2 Bft)
08.03.2015 10:02 8,9 C 6,7 C 71 % 1024,5 hPa 0,0 l/m 2 min 0 min 429 W/m 14,6 km/h (3 Bft)
08.03.2015 10:04 9,1 C 7,2 C 71 % 1024,5 hPa 0,0 l/m 2 min 0 min 433 W/m 16,7 km/h (3 Bft)
08.03.2015 10:06 9,2 C 7,2 C 70 % 1024,5 hPa 0,0 l/m 2 min 0 min 438 W/m 14,6 km/h (3 Bft)
08.03.2015 10:08 9,3 C 7,2 C 70 % 1024,5 hPa 0,0 l/m 2 min 0 min 443 W/m 16,7 km/h (3 Bft)
08.03.2015 10:10 9,5 C 7,2 C 69 % 1024,5 hPa 0,0 l/m 2 min 0 min 448 W/m 14,6 km/h (3 Bft)
08.03.2015 10:12 9,6 C 7,2 C 69 % 1024,4 hPa 0,0 l/m 2 min 0 min 453 W/m 14,6 km/h (3 Bft)
08.03.2015 10:14 9,7 C 7,2 C 69 % 1024,5 hPa 0,0 l/m 2 min 0 min 456 W/m 12,6 km/h (3 Bft)
08.03.2015 10:16 9,8 C 7,8 C 69 % 1024,5 hPa 0,0 l/m 2 min 0 min 460 W/m 14,6 km/h (3 Bft)
08.03.2015 10:18 9,9 C 7,8 C 69 % 1024,5 hPa 0,0 l/m 2 min 0 min 464 W/m 14,6 km/h (3 Bft)
08.03.2015 10:20 10,1 C 7,8 C 68 % 1024,4 hPa 0,0 l/m 2 min 0 min 468 W/m 18,8 km/h (3 Bft)
08.03.2015 10:22 10,2 C 7,8 C 68 % 1024,5 hPa 0,0 l/m 2 min 0 min 472 W/m 12,6 km/h (3 Bft)
08.03.2015 10:24 10,3 C 8,3 C 68 % 1024,4 hPa 0,0 l/m 2 min 0 min 477 W/m 14,6 km/h (3 Bft)
08.03.2015 10:26 10,4 C 8,3 C 68 % 1024,4 hPa 0,0 l/m 2 min 0 min 480 W/m 14,6 km/h (3 Bft)
08.03.2015 10:28 10,5 C 8,3 C 68 % 1024,4 hPa 0,0 l/m 2 min 0 min 484 W/m 14,6 km/h (3 Bft)
08.03.2015 10:30 10,7 C 8,3 C 68 % 1024,4 hPa 0,0 l/m 2 min 0 min 488 W/m 10,5 km/h (2 Bft)
08.03.2015 10:32 10,8 C 8,3 C 67 % 1024,5 hPa 0,0 l/m 2 min 0 min 491 W/m 16,7 km/h (3 Bft)
08.03.2015 10:34 10,9 C 8,3 C 67 % 1024,4 hPa 0,0 l/m 2 min 0 min 495 W/m 10,5 km/h (2 Bft)
08.03.2015 10:36 11,0 C 8,9 C 67 % 1024,4 hPa 0,0 l/m 2 min 0 min 497 W/m 14,6 km/h (3 Bft)
08.03.2015 10:38 11,1 C 8,9 C 67 % 1024,3 hPa 0,0 l/m 2 min 0 min 500 W/m 12,6 km/h (3 Bft)
08.03.2015 10:40 11,2 C 8,9 C 67 % 1024,3 hPa 0,0 l/m 2 min 0 min 504 W/m 10,5 km/h (2 Bft)
08.03.2015 10:42 11,3 C 8,9 C 66 % 1024,3 hPa 0,0 l/m 2 min 0 min 506 W/m 14,6 km/h (3 Bft)
08.03.2015 10:44 11,4 C 8,9 C 66 % 1024,3 hPa 0,0 l/m 2 min 0 min 510 W/m 12,6 km/h (3 Bft)
08.03.2015 10:46 11,6 C 8,9 C 66 % 1024,3 hPa 0,0 l/m 2 min 0 min 512 W/m 8,4 km/h (2 Bft)
08.03.2015 10:48 11,6 C 8,9 C 66 % 1024,3 hPa 0,0 l/m 2 min 0 min 499 W/m 10,5 km/h (2 Bft)
08.03.2015 10:50 11,7 C 8,9 C 66 % 1024,3 hPa 0,0 l/m 2 min 0 min 504 W/m 10,5 km/h (2 Bft)
08.03.2015 10:52 11,8 C 8,9 C 65 % 1024,3 hPa 0,0 l/m 2 min 0 min 510 W/m 10,5 km/h (2 Bft)
08.03.2015 10:54 11,9 C 9,4 C 64 % 1024,3 hPa 0,0 l/m 2 min 0 min 518 W/m 14,6 km/h (3 Bft)
08.03.2015 10:56 12,1 C 9,4 C 64 % 1024,3 hPa 0,0 l/m 2 min 0 min 526 W/m 14,6 km/h (3 Bft)
08.03.2015 10:58 12,2 C 9,4 C 64 % 1024,3 hPa 0,0 l/m 2 min 0 min 526 W/m 14,6 km/h (3 Bft)
08.03.2015 11:00 12,3 C 9,4 C 64 % 1024,3 hPa 0,0 l/m 2 min 0 min 529 W/m 14,6 km/h (3 Bft)
08.03.2015 11:02 12,4 C 10,0 C 64 % 1024,3 hPa 0,0 l/m 2 min 0 min 531 W/m 8,4 km/h (2 Bft)
08.03.2015 11:04 12,5 C 10,0 C 64 % 1024,3 hPa 0,0 l/m 2 min 0 min 534 W/m 8,4 km/h (2 Bft)
08.03.2015 11:06 12,6 C 10,0 C 64 % 1024,3 hPa 0,0 l/m 2 min 0 min 535 W/m 14,6 km/h (3 Bft)
08.03.2015 11:08 12,7 C 10,0 C 63 % 1024,3 hPa 0,0 l/m 2 min 0 min 540 W/m 16,7 km/h (3 Bft)
08.03.2015 11:10 12,9 C 10,0 C 62 % 1024,3 hPa 0,0 l/m 2 min 0 min 541 W/m 14,6 km/h (3 Bft)
08.03.2015 11:12 13,0 C 10,0 C 62 % 1024,3 hPa 0,0 l/m 2 min 0 min 542 W/m 12,6 km/h (3 Bft)
08.03.2015 11:14 13,1 C 10,0 C 61 % 1024,2 hPa 0,0 l/m 2 min 0 min 545 W/m 14,6 km/h (3 Bft)
08.03.2015 11:16 13,2 C 10,0 C 61 % 1024,2 hPa 0,0 l/m 2 min 0 min 547 W/m 12,6 km/h (3 Bft)
08.03.2015 11:18 13,3 C 10,6 C 62 % 1024,2 hPa 0,0 l/m 2 min 0 min 543 W/m 12,6 km/h (3 Bft)
08.03.2015 11:20 13,3 C 10,6 C 61 % 1024,2 hPa 0,0 l/m 2 min 0 min 546 W/m 10,5 km/h (2 Bft)
08.03.2015 11:22 13,4 C 10,6 C 61 % 1024,2 hPa 0,0 l/m 2 min 0 min 548 W/m 10,5 km/h (2 Bft)
08.03.2015 11:24 13,6 C 10,6 C 61 % 1024,3 hPa 0,0 l/m 2 min 0 min 553 W/m 18,8 km/h (3 Bft)
08.03.2015 11:26 13,7 C 10,6 C 59 % 1024,3 hPa 0,0 l/m 2 min 0 min 557 W/m 18,8 km/h (3 Bft)
08.03.2015 11:28 13,8 C 10,6 C 58 % 1024,3 hPa 0,0 l/m 2 min 0 min 561 W/m 14,6 km/h (3 Bft)
08.03.2015 11:30 13,9 C 11,1 C 58 % 1024,3 hPa 0,0 l/m 2 min 0 min 563 W/m 10,5 km/h (2 Bft)
08.03.2015 11:32 14,0 C 10,6 C 59 % 1024,3 hPa 0,0 l/m 2 min 0 min 565 W/m 8,4 km/h (2 Bft)
08.03.2015 11:34 14,2 C 10,6 C 59 % 1024,3 hPa 0,0 l/m 2 min 0 min 570 W/m 16,7 km/h (3 Bft)
08.03.2015 11:36 14,2 C 11,1 C 59 % 1024,3 hPa 0,0 l/m 2 min 0 min 571 W/m 16,7 km/h (3 Bft)
08.03.2015 11:38 14,2 C 11,1 C 58 % 1024,1 hPa 0,0 l/m 2 min 0 min 571 W/m 10,5 km/h (2 Bft)
08.03.2015 11:40 14,3 C 11,1 C 58 % 1024,2 hPa 0,0 l/m 2 min 0 min 570 W/m 16,7 km/h (3 Bft)
08.03.2015 11:42 14,4 C 11,7 C 58 % 1024,1 hPa 0,0 l/m 2 min 0 min 567 W/m 16,7 km/h (3 Bft)
08.03.2015 11:44 14,4 C 11,7 C 59 % 1024,1 hPa 0,0 l/m 2 min 0 min 572 W/m 16,7 km/h (3 Bft)
08.03.2015 11:46 14,6 C 11,7 C 58 % 1024,0 hPa 0,0 l/m 2 min 0 min 575 W/m 14,6 km/h (3 Bft)
08.03.2015 11:48 14,7 C 11,7 C 57 % 1024,0 hPa 0,0 l/m 2 min 0 min 573 W/m 10,5 km/h (2 Bft)
08.03.2015 11:50 14,7 C 11,7 C 57 % 1024,0 hPa 0,0 l/m 2 min 0 min 571 W/m 12,6 km/h (3 Bft)
08.03.2015 11:52 14,8 C 11,7 C 57 % 1023,9 hPa 0,0 l/m 2 min 0 min 570 W/m 14,6 km/h (3 Bft)
08.03.2015 11:54 14,9 C 11,7 C 56 % 1023,9 hPa 0,0 l/m 2 min 0 min 574 W/m 12,6 km/h (3 Bft)
08.03.2015 11:56 15,0 C 11,7 C 57 % 1023,9 hPa 0,0 l/m 2 min 0 min 572 W/m 12,6 km/h (3 Bft)
08.03.2015 11:58 15,1 C 11,7 C 56 % 1023,9 hPa 0,0 l/m 2 min 0 min 576 W/m 14,6 km/h (3 Bft)
08.03.2015 12:00 15,2 C 12,2 C 57 % 1023,9 hPa 0,0 l/m 2 min 0 min 579 W/m 12,6 km/h (3 Bft)
08.03.2015 12:02 15,3 C 12,2 C 57 % 1023,9 hPa 0,0 l/m 2 min 0 min 583 W/m 16,7 km/h (3 Bft)
08.03.2015 12:06 15,6 C 12,2 C 57 % 1023,8 hPa 0,0 l/m 2 min 0 min 588 W/m 14,6 km/h (3 Bft)
08.03.2015 12:08 15,6 C 12,2 C 57 % 1023,8 hPa 0,0 l/m 2 min 0 min 591 W/m 12,6 km/h (3 Bft)
08.03.2015 12:10 15,7 C 12,2 C 56 % 1023,8 hPa 0,0 l/m 2 min 0 min 587 W/m 12,6 km/h (3 Bft)
08.03.2015 12:12 15,8 C 12,2 C 56 % 1023,8 hPa 0,0 l/m 2 min 0 min 589 W/m 10,5 km/h (2 Bft)
08.03.2015 12:14 15,9 C 12,2 C 57 % 1023,7 hPa 0,0 l/m 2 min 0 min 588 W/m 10,5 km/h (2 Bft)
08.03.2015 12:16 16,0 C 12,8 C 53 % 1023,8 hPa 0,0 l/m 2 min 0 min 594 W/m 14,6 km/h (3 Bft)
08.03.2015 12:18 16,1 C 13,3 C 48 % 1023,7 hPa 0,0 l/m 2 min 0 min 595 W/m 14,6 km/h (3 Bft)
08.03.2015 12:20 16,2 C 13,3 C 47 % 1023,7 hPa 0,0 l/m 2 min 0 min 599 W/m 16,7 km/h (3 Bft)
08.03.2015 12:22 16,3 C 13,3 C 47 % 1023,7 hPa 0,0 l/m 2 min 0 min 600 W/m 16,7 km/h (3 Bft)
08.03.2015 12:24 16,4 C 13,3 C 48 % 1023,7 hPa 0,0 l/m 2 min 0 min 601 W/m 16,7 km/h (3 Bft)
08.03.2015 12:26 16,4 C 13,3 C 48 % 1023,6 hPa 0,0 l/m 2 min 0 min 597 W/m 12,6 km/h (3 Bft)
08.03.2015 12:28 16,6 C 13,3 C 46 % 1023,6 hPa 0,0 l/m 2 min 0 min 598 W/m 14,6 km/h (3 Bft)
08.03.2015 12:30 16,6 C 13,3 C 46 % 1023,5 hPa 0,0 l/m 2 min 0 min 600 W/m 16,7 km/h (3 Bft)
08.03.2015 12:32 16,7 C 13,9 C 44 % 1023,5 hPa 0,0 l/m 2 min 0 min 606 W/m 14,6 km/h (3 Bft)
08.03.2015 12:34 16,8 C 13,9 C 45 % 1023,4 hPa 0,0 l/m 2 min 0 min 605 W/m 8,4 km/h (2 Bft)
08.03.2015 12:36 16,9 C 13,9 C 45 % 1023,4 hPa 0,0 l/m 2 min 0 min 603 W/m 10,5 km/h (2 Bft)
08.03.2015 12:38 17,1 C 13,9 C 44 % 1023,3 hPa 0,0 l/m 2 min 0 min 603 W/m 16,7 km/h (3 Bft)
08.03.2015 12:40 17,2 C 13,9 C 42 % 1023,4 hPa 0,0 l/m 2 min 0 min 603 W/m 16,7 km/h (3 Bft)
08.03.2015 12:42 17,3 C 13,9 C 42 % 1023,3 hPa 0,0 l/m 2 min 0 min 607 W/m 14,6 km/h (3 Bft)
08.03.2015 12:44 17,3 C 13,9 C 40 % 1023,3 hPa 0,0 l/m 2 min 0 min 605 W/m 18,8 km/h (3 Bft)
08.03.2015 12:46 17,4 C 14,4 C 40 % 1023,3 hPa 0,0 l/m 2 min 0 min 605 W/m 20,9 km/h (4 Bft)
08.03.2015 12:48 17,5 C 14,4 C 39 % 1023,3 hPa 0,0 l/m 2 min 0 min 599 W/m 18,8 km/h (3 Bft)
08.03.2015 12:50 17,6 C 15,0 C 39 % 1023,3 hPa 0,0 l/m 2 min 0 min 594 W/m 14,6 km/h (3 Bft)
08.03.2015 12:52 17,6 C 14,4 C 40 % 1023,3 hPa 0,0 l/m 2 min 0 min 600 W/m 16,7 km/h (3 Bft)
08.03.2015 12:54 17,7 C 14,4 C 40 % 1023,3 hPa 0,0 l/m 2 min 0 min 604 W/m 16,7 km/h (3 Bft)
08.03.2015 12:56 17,7 C 15,0 C 39 % 1023,3 hPa 0,0 l/m 2 min 0 min 601 W/m 18,8 km/h (3 Bft)
08.03.2015 12:58 17,7 C 14,4 C 39 % 1023,2 hPa 0,0 l/m 2 min 0 min 593 W/m 20,9 km/h (4 Bft)
08.03.2015 13:00 17,7 C 14,4 C 39 % 1023,2 hPa 0,0 l/m 2 min 0 min 579 W/m 16,7 km/h (3 Bft)
08.03.2015 13:02 17,7 C 14,4 C 39 % 1023,1 hPa 0,0 l/m 2 min 0 min 563 W/m 16,7 km/h (3 Bft)
08.03.2015 13:04 17,8 C 14,4 C 40 % 1023,1 hPa 0,0 l/m 2 min 0 min 559 W/m 18,8 km/h (3 Bft)
08.03.2015 13:06 17,8 C 14,4 C 40 % 1023,0 hPa 0,0 l/m 2 min 0 min 551 W/m 25,1 km/h (4 Bft)
08.03.2015 13:08 17,9 C 14,4 C 40 % 1023,0 hPa 0,0 l/m 2 min 0 min 551 W/m 23,0 km/h (4 Bft)
08.03.2015 13:10 17,9 C 14,4 C 39 % 1023,0 hPa 0,0 l/m 2 min 0 min 552 W/m 18,8 km/h (3 Bft)
08.03.2015 13:12 17,9 C 14,4 C 38 % 1023,0 hPa 0,0 l/m 2 min 0 min 545 W/m 14,6 km/h (3 Bft)
08.03.2015 13:14 17,9 C 14,4 C 38 % 1023,0 hPa 0,0 l/m 2 min 0 min 533 W/m 16,7 km/h (3 Bft)
08.03.2015 13:16 18,0 C 14,4 C 38 % 1023,0 hPa 0,0 l/m 2 min 0 min 543 W/m 12,6 km/h (3 Bft)
08.03.2015 13:18 18,1 C 15,0 C 39 % 1022,9 hPa 0,0 l/m 2 min 0 min 551 W/m 10,5 km/h (2 Bft)
08.03.2015 13:20 18,2 C 15,0 C 39 % 1022,8 hPa 0,0 l/m 2 min 0 min 577 W/m 12,6 km/h (3 Bft)
08.03.2015 13:22 18,2 C 15,0 C 39 % 1022,8 hPa 0,0 l/m 2 min 0 min 581 W/m 12,6 km/h (3 Bft)
08.03.2015 13:24 18,3 C 15,0 C 39 % 1022,9 hPa 0,0 l/m 2 min 0 min 586 W/m 16,7 km/h (3 Bft)
08.03.2015 13:26 18,3 C 15,0 C 37 % 1022,8 hPa 0,0 l/m 2 min 0 min 571 W/m 14,6 km/h (3 Bft)
08.03.2015 13:28 18,4 C 15,0 C 38 % 1022,9 hPa 0,0 l/m 2 min 0 min 570 W/m 14,6 km/h (3 Bft)
08.03.2015 13:30 18,5 C 15,0 C 38 % 1022,9 hPa 0,0 l/m 2 min 0 min 556 W/m 23,0 km/h (4 Bft)
08.03.2015 13:32 18,6 C 15,0 C 36 % 1022,8 hPa 0,0 l/m 2 min 0 min 555 W/m 16,7 km/h (3 Bft)
08.03.2015 13:34 18,6 C 15,0 C 36 % 1022,9 hPa 0,0 l/m 2 min 0 min 556 W/m 18,8 km/h (3 Bft)
08.03.2015 13:36 18,7 C 15,0 C 36 % 1022,8 hPa 0,0 l/m 2 min 0 min 534 W/m 25,1 km/h (4 Bft)
08.03.2015 13:38 18,7 C 15,0 C 37 % 1022,8 hPa 0,0 l/m 2 min 0 min 565 W/m 20,9 km/h (4 Bft)
08.03.2015 13:40 18,8 C 15,0 C 36 % 1022,7 hPa 0,0 l/m 2 min 0 min 578 W/m 23,0 km/h (4 Bft)
08.03.2015 13:42 18,8 C 15,6 C 36 % 1022,7 hPa 0,0 l/m 2 min 0 min 588 W/m 27,2 km/h (4 Bft)
08.03.2015 13:44 18,8 C 15,6 C 35 % 1022,6 hPa 0,0 l/m 2 min 0 min 582 W/m 18,8 km/h (3 Bft)
08.03.2015 13:46 18,8 C 15,6 C 36 % 1022,6 hPa 0,0 l/m 2 min 0 min 584 W/m 16,7 km/h (3 Bft)
08.03.2015 13:48 18,9 C 15,6 C 36 % 1022,5 hPa 0,0 l/m 2 min 0 min 574 W/m 18,8 km/h (3 Bft)
08.03.2015 13:50 18,9 C 15,6 C 37 % 1022,5 hPa 0,0 l/m 2 min 0 min 577 W/m 16,7 km/h (3 Bft)
08.03.2015 13:52 18,9 C 15,6 C 38 % 1022,5 hPa 0,0 l/m 2 min 0 min 574 W/m 16,7 km/h (3 Bft)
08.03.2015 13:54 19,0 C 15,6 C 38 % 1022,5 hPa 0,0 l/m 2 min 0 min 568 W/m 25,1 km/h (4 Bft)
08.03.2015 13:56 19,0 C 15,6 C 37 % 1022,5 hPa 0,0 l/m 2 min 0 min 567 W/m 16,7 km/h (3 Bft)
08.03.2015 13:58 19,1 C 15,6 C 37 % 1022,6 hPa 0,0 l/m 2 min 0 min 564 W/m 20,9 km/h (4 Bft)
08.03.2015 14:00 19,1 C 15,6 C 37 % 1022,5 hPa 0,0 l/m 2 min 0 min 562 W/m 23,0 km/h (4 Bft)
08.03.2015 14:02 19,1 C 15,6 C 36 % 1022,5 hPa 0,0 l/m 2 min 0 min 560 W/m 23,0 km/h (4 Bft)
08.03.2015 14:04 19,2 C 16,1 C 36 % 1022,4 hPa 0,0 l/m 2 min 0 min 562 W/m 18,8 km/h (3 Bft)
08.03.2015 14:06 19,2 C 15,6 C 36 % 1022,4 hPa 0,0 l/m 2 min 0 min 541 W/m 18,8 km/h (3 Bft)
08.03.2015 14:08 19,2 C 16,1 C 36 % 1022,4 hPa 0,0 l/m 2 min 0 min 546 W/m 20,9 km/h (4 Bft)
08.03.2015 14:10 19,2 C 16,1 C 36 % 1022,4 hPa 0,0 l/m 2 min 0 min 546 W/m 23,0 km/h (4 Bft)
08.03.2015 14:12 19,2 C 16,1 C 36 % 1022,4 hPa 0,0 l/m 2 min 0 min 547 W/m 29,3 km/h (5 Bft)
08.03.2015 14:14 19,2 C 16,1 C 35 % 1022,4 hPa 0,0 l/m 2 min 0 min 546 W/m 25,1 km/h (4 Bft)
08.03.2015 14:16 19,2 C 16,1 C 36 % 1022,4 hPa 0,0 l/m 2 min 0 min 546 W/m 16,7 km/h (3 Bft)
08.03.2015 14:18 19,2 C 16,1 C 36 % 1022,3 hPa 0,0 l/m 2 min 0 min 540 W/m 14,6 km/h (3 Bft)
08.03.2015 14:20 19,2 C 16,1 C 35 % 1022,3 hPa 0,0 l/m 2 min 0 min 539 W/m 33,5 km/h (5 Bft)
08.03.2015 14:22 19,3 C 16,1 C 36 % 1022,2 hPa 0,0 l/m 2 min 0 min 541 W/m 18,8 km/h (3 Bft)
08.03.2015 14:24 19,3 C 16,1 C 36 % 1022,1 hPa 0,0 l/m 2 min 0 min 535 W/m 14,6 km/h (3 Bft)
08.03.2015 14:26 19,3 C 16,7 C 35 % 1022,1 hPa 0,0 l/m 2 min 0 min 534 W/m 23,0 km/h (4 Bft)
08.03.2015 14:28 19,3 C 16,7 C 35 % 1022,1 hPa 0,0 l/m 2 min 0 min 530 W/m 27,2 km/h (4 Bft)
08.03.2015 14:30 19,4 C 16,7 C 34 % 1022,0 hPa 0,0 l/m 2 min 0 min 518 W/m 18,8 km/h (3 Bft)
08.03.2015 14:32 19,4 C 16,7 C 34 % 1021,8 hPa 0,0 l/m 2 min 0 min 504 W/m 20,9 km/h (4 Bft)
08.03.2015 14:34 19,5 C 18,3 C 34 % 1021,8 hPa 0,0 l/m 2 min 0 min 517 W/m 37,7 km/h (5 Bft)
08.03.2015 14:36 19,5 C 19,4 C 35 % 1021,7 hPa 0,0 l/m 2 min 0 min 530 W/m 23,0 km/h (4 Bft)
08.03.2015 14:38 19,5 C 20,0 C 34 % 1021,6 hPa 0,0 l/m 2 min 0 min 523 W/m 25,1 km/h (4 Bft)
08.03.2015 14:40 19,5 C 20,0 C 34 % 1021,6 hPa 0,0 l/m 2 min 0 min 512 W/m 16,7 km/h (3 Bft)
08.03.2015 14:42 19,5 C 20,0 C 35 % 1021,5 hPa 0,0 l/m 2 min 0 min 500 W/m 12,6 km/h (3 Bft)
08.03.2015 14:44 19,6 C 20,0 C 36 % 1021,6 hPa 0,0 l/m 2 min 0 min 473 W/m 18,8 km/h (3 Bft)
08.03.2015 14:46 19,6 C 19,4 C 36 % 1021,5 hPa 0,0 l/m 2 min 0 min 476 W/m 18,8 km/h (3 Bft)
08.03.2015 14:48 19,6 C 19,4 C 36 % 1021,5 hPa 0,0 l/m 2 min 0 min 449 W/m 12,6 km/h (3 Bft)
08.03.2015 14:50 19,6 C 18,9 C 34 % 1021,4 hPa 0,0 l/m 2 min 0 min 442 W/m 20,9 km/h (4 Bft)
08.03.2015 14:52 19,7 C 17,8 C 34 % 1021,4 hPa 0,0 l/m 2 min 0 min 379 W/m 20,9 km/h (4 Bft)
08.03.2015 14:54 19,7 C 17,8 C 35 % 1021,3 hPa 0,0 l/m 2 min 0 min 356 W/m 12,6 km/h (3 Bft)
08.03.2015 14:56 19,6 C 17,2 C 33 % 1021,3 hPa 0,0 l/m 2 min 0 min 355 W/m 27,2 km/h (4 Bft)
08.03.2015 14:58 19,6 C 16,7 C 33 % 1021,3 hPa 0,0 l/m 2 min 0 min 367 W/m 14,6 km/h (3 Bft)
08.03.2015 15:00 19,6 C 16,7 C 33 % 1021,3 hPa 0,0 l/m 2 min 0 min 399 W/m 16,7 km/h (3 Bft)
08.03.2015 15:02 19,6 C 16,7 C 33 % 1021,3 hPa 0,0 l/m 2 min 0 min 430 W/m 23,0 km/h (4 Bft)
08.03.2015 15:04 19,6 C 16,7 C 33 % 1021,2 hPa 0,0 l/m 2 min 0 min 415 W/m 20,9 km/h (4 Bft)
08.03.2015 15:06 19,6 C 16,7 C 33 % 1021,1 hPa 0,0 l/m 2 min 0 min 410 W/m 20,9 km/h (4 Bft)
08.03.2015 15:08 19,6 C 16,7 C 32 % 1021,0 hPa 0,0 l/m 2 min 0 min 403 W/m 18,8 km/h (3 Bft)
08.03.2015 15:10 19,6 C 16,7 C 34 % 1021,0 hPa 0,0 l/m 2 min 0 min 399 W/m 16,7 km/h (3 Bft)
08.03.2015 15:12 19,6 C 16,7 C 32 % 1021,0 hPa 0,0 l/m 2 min 0 min 408 W/m 16,7 km/h (3 Bft)
08.03.2015 15:14 19,6 C 17,2 C 32 % 1021,1 hPa 0,0 l/m 2 min 0 min 431 W/m 16,7 km/h (3 Bft)
08.03.2015 15:16 19,6 C 17,2 C 33 % 1021,1 hPa 0,0 l/m 2 min 0 min 426 W/m 12,6 km/h (3 Bft)
08.03.2015 15:18 19,7 C 17,2 C 32 % 1021,0 hPa 0,0 l/m 2 min 0 min 424 W/m 18,8 km/h (3 Bft)
08.03.2015 15:20 19,7 C 17,2 C 31 % 1021,1 hPa 0,0 l/m 2 min 0 min 423 W/m 23,0 km/h (4 Bft)
08.03.2015 15:22 19,7 C 17,2 C 31 % 1021,1 hPa 0,0 l/m 2 min 0 min 409 W/m 20,9 km/h (4 Bft)
08.03.2015 15:24 19,7 C 17,2 C 33 % 1021,1 hPa 0,0 l/m 2 min 0 min 378 W/m 14,6 km/h (3 Bft)
08.03.2015 15:26 19,7 C 17,2 C 31 % 1021,1 hPa 0,0 l/m 2 min 0 min 397 W/m 18,8 km/h (3 Bft)
08.03.2015 15:28 19,8 C 17,2 C 30 % 1021,1 hPa 0,0 l/m 2 min 0 min 404 W/m 14,6 km/h (3 Bft)
08.03.2015 15:30 19,8 C 16,7 C 30 % 1021,1 hPa 0,0 l/m 2 min 0 min 401 W/m 12,6 km/h (3 Bft)
08.03.2015 15:32 19,8 C 16,7 C 31 % 1021,2 hPa 0,0 l/m 2 min 0 min 365 W/m 12,6 km/h (3 Bft)
08.03.2015 15:34 19,9 C 17,2 C 32 % 1021,2 hPa 0,0 l/m 2 min 0 min 324 W/m 18,8 km/h (3 Bft)
08.03.2015 15:36 19,9 C 17,2 C 30 % 1021,2 hPa 0,0 l/m 2 min 0 min 310 W/m 23,0 km/h (4 Bft)
08.03.2015 15:38 19,9 C 16,7 C 31 % 1021,1 hPa 0,0 l/m 2 min 0 min 269 W/m 12,6 km/h (3 Bft)
08.03.2015 15:40 19,8 C 16,7 C 30 % 1021,1 hPa 0,0 l/m 2 min 0 min 269 W/m 16,7 km/h (3 Bft)
08.03.2015 15:42 19,8 C 16,7 C 31 % 1021,1 hPa 0,0 l/m 2 min 0 min 278 W/m 12,6 km/h (3 Bft)
08.03.2015 15:44 19,8 C 16,7 C 32 % 1021,1 hPa 0,0 l/m 2 min 0 min 283 W/m 14,6 km/h (3 Bft)
08.03.2015 15:46 19,8 C 16,7 C 30 % 1021,1 hPa 0,0 l/m 2 min 0 min 283 W/m 23,0 km/h (4 Bft)
08.03.2015 15:48 19,7 C 16,7 C 31 % 1021,1 hPa 0,0 l/m 2 min 0 min 284 W/m 12,6 km/h (3 Bft)
08.03.2015 15:50 19,7 C 16,7 C 32 % 1021,1 hPa 0,0 l/m 2 min 0 min 277 W/m 12,6 km/h (3 Bft)
08.03.2015 15:52 19,6 C 16,7 C 31 % 1021,1 hPa 0,0 l/m 2 min 0 min 274 W/m 12,6 km/h (3 Bft)
08.03.2015 15:54 19,6 C 16,7 C 32 % 1021,1 hPa 0,0 l/m 2 min 0 min 263 W/m 16,7 km/h (3 Bft)
08.03.2015 15:56 19,6 C 16,7 C 31 % 1021,1 hPa 0,0 l/m 2 min 0 min 252 W/m 16,7 km/h (3 Bft)
08.03.2015 15:58 19,5 C 16,1 C 31 % 1021,1 hPa 0,0 l/m 2 min 0 min 256 W/m 16,7 km/h (3 Bft)
08.03.2015 16:00 19,4 C 16,1 C 32 % 1021,1 hPa 0,0 l/m 2 min 0 min 254 W/m 16,7 km/h (3 Bft)
08.03.2015 16:02 19,4 C 16,1 C 31 % 1021,1 hPa 0,0 l/m 2 min 0 min 268 W/m 10,5 km/h (2 Bft)
08.03.2015 16:04 19,4 C 16,1 C 32 % 1021,1 hPa 0,0 l/m 2 min 0 min 230 W/m 10,5 km/h (2 Bft)
08.03.2015 16:06 19,4 C 16,1 C 32 % 1021,0 hPa 0,0 l/m 2 min 0 min 231 W/m 8,4 km/h (2 Bft)
08.03.2015 16:07 19,4 C 16,1 C 33 % 1021,1 hPa 0,0 l/m 1 min 0 min 225 W/m 10,5 km/h (2 Bft)
08.03.2015 16:08 19,4 C 16,7 C 33 % 1021,1 hPa 0,0 l/m 1 min 0 min 220 W/m 10,5 km/h (2 Bft)
08.03.2015 16:09 19,4 C 16,7 C 32 % 1021,1 hPa 0,0 l/m 1 min 0 min 221 W/m 12,6 km/h (3 Bft)
08.03.2015 16:10 19,3 C 16,1 C 33 % 1021,1 hPa 0,0 l/m 1 min 0 min 218 W/m 12,6 km/h (3 Bft)
08.03.2015 16:11 19,3 C 16,1 C 34 % 1021,2 hPa 0,0 l/m 1 min 0 min 227 W/m 12,6 km/h (3 Bft)
08.03.2015 16:12 19,3 C 16,1 C 35 % 1021,1 hPa 0,0 l/m 1 min 0 min 218 W/m 12,6 km/h (3 Bft)
08.03.2015 16:13 19,3 C 16,1 C 34 % 1021,1 hPa 0,0 l/m 1 min 0 min 232 W/m 16,7 km/h (3 Bft)
08.03.2015 16:14 19,3 C 16,1 C 34 % 1021,2 hPa 0,0 l/m 1 min 0 min 246 W/m 10,5 km/h (2 Bft)
08.03.2015 16:15 19,3 C 16,1 C 34 % 1021,1 hPa 0,0 l/m 1 min 0 min 250 W/m 10,5 km/h (2 Bft)
08.03.2015 16:16 19,3 C 16,1 C 34 % 1021,1 hPa 0,0 l/m 1 min 0 min 253 W/m 10,5 km/h (2 Bft)
08.03.2015 16:17 19,3 C 16,1 C 34 % 1021,2 hPa 0,0 l/m 1 min 0 min 250 W/m 16,7 km/h (3 Bft)
08.03.2015 16:18 19,3 C 16,1 C 35 % 1021,1 hPa 0,0 l/m 1 min 0 min 239 W/m 16,7 km/h (3 Bft)
08.03.2015 16:19 19,3 C 16,1 C 34 % 1021,1 hPa 0,0 l/m 1 min 0 min 211 W/m 12,6 km/h (3 Bft)
08.03.2015 16:20 19,3 C 16,1 C 35 % 1021,1 hPa 0,0 l/m 1 min 0 min 211 W/m 12,6 km/h (3 Bft)
08.03.2015 16:21 19,3 C 16,1 C 36 % 1021,1 hPa 0,0 l/m 1 min 0 min 197 W/m 8,4 km/h (2 Bft)
08.03.2015 16:22 19,2 C 16,1 C 35 % 1021,1 hPa 0,0 l/m 1 min 0 min 199 W/m 12,6 km/h (3 Bft)
08.03.2015 16:23 19,2 C 16,1 C 35 % 1021,1 hPa 0,0 l/m 1 min 0 min 181 W/m 6,3 km/h (2 Bft)
08.03.2015 16:24 19,2 C 16,1 C 36 % 1021,1 hPa 0,0 l/m 1 min 0 min 179 W/m 6,3 km/h (2 Bft)
08.03.2015 16:25 19,2 C 16,1 C 36 % 1021,0 hPa 0,0 l/m 1 min 0 min 169 W/m 12,6 km/h (3 Bft)
08.03.2015 16:26 19,2 C 16,1 C 35 % 1021,0 hPa 0,0 l/m 1 min 0 min 165 W/m 10,5 km/h (2 Bft)
08.03.2015 16:27 19,2 C 15,6 C 36 % 1021,0 hPa 0,0 l/m 1 min 0 min 172 W/m 10,5 km/h (2 Bft)
08.03.2015 16:28 19,2 C 15,6 C 36 % 1020,9 hPa 0,0 l/m 1 min 0 min 185 W/m 14,6 km/h (3 Bft)
08.03.2015 16:29 19,2 C 15,6 C 36 % 1021,0 hPa 0,0 l/m 1 min 0 min 176 W/m 12,6 km/h (3 Bft)
08.03.2015 16:30 19,2 C 15,6 C 36 % 1020,9 hPa 0,0 l/m 1 min 0 min 171 W/m 14,6 km/h (3 Bft)
08.03.2015 16:31 19,1 C 15,6 C 36 % 1020,9 hPa 0,0 l/m 1 min 0 min 171 W/m 14,6 km/h (3 Bft)
08.03.2015 16:32 19,1 C 15,6 C 36 % 1020,9 hPa 0,0 l/m 1 min 0 min 167 W/m 14,6 km/h (3 Bft)
08.03.2015 16:33 19,1 C 15,6 C 37 % 1021,0 hPa 0,0 l/m 1 min 0 min 171 W/m 12,6 km/h (3 Bft)
08.03.2015 16:34 19,1 C 15,0 C 37 % 1021,0 hPa 0,0 l/m 1 min 0 min 167 W/m 10,5 km/h (2 Bft)
08.03.2015 16:35 19,0 C 15,0 C 37 % 1021,0 hPa 0,0 l/m 1 min 0 min 172 W/m 12,6 km/h (3 Bft)
08.03.2015 16:36 19,0 C 15,0 C 37 % 1021,0 hPa 0,0 l/m 1 min 0 min 166 W/m 14,6 km/h (3 Bft)
08.03.2015 16:37 18,9 C 15,0 C 37 % 1021,0 hPa 0,0 l/m 1 min 0 min 156 W/m 12,6 km/h (3 Bft)
08.03.2015 16:38 18,9 C 15,0 C 37 % 1020,9 hPa 0,0 l/m 1 min 0 min 151 W/m 10,5 km/h (2 Bft)
08.03.2015 16:39 18,9 C 15,0 C 37 % 1020,9 hPa 0,0 l/m 1 min 0 min 149 W/m 10,5 km/h (2 Bft)
08.03.2015 16:40 18,8 C 15,0 C 37 % 1020,9 hPa 0,0 l/m 1 min 0 min 144 W/m 8,4 km/h (2 Bft)
08.03.2015 16:41 18,8 C 15,0 C 38 % 1020,8 hPa 0,0 l/m 1 min 0 min 141 W/m 10,5 km/h (2 Bft)
08.03.2015 16:42 18,8 C 15,0 C 37 % 1020,7 hPa 0,0 l/m 1 min 0 min 144 W/m 10,5 km/h (2 Bft)
08.03.2015 16:43 18,8 C 15,0 C 38 % 1020,7 hPa 0,0 l/m 1 min 0 min 151 W/m 12,6 km/h (3 Bft)
08.03.2015 16:44 18,7 C 15,0 C 38 % 1020,7 hPa 0,0 l/m 1 min 0 min 156 W/m 14,6 km/h (3 Bft)
08.03.2015 16:45 18,7 C 15,0 C 37 % 1020,7 hPa 0,0 l/m 1 min 0 min 155 W/m 12,6 km/h (3 Bft)
08.03.2015 16:46 18,7 C 15,0 C 37 % 1020,7 hPa 0,0 l/m 1 min 0 min 155 W/m 14,6 km/h (3 Bft)
08.03.2015 16:47 18,7 C 15,0 C 38 % 1020,7 hPa 0,0 l/m 1 min 0 min 149 W/m 10,5 km/h (2 Bft)
08.03.2015 16:48 18,7 C 15,0 C 39 % 1020,8 hPa 0,0 l/m 1 min 0 min 145 W/m 6,3 km/h (2 Bft)
08.03.2015 16:49 18,7 C 15,0 C 38 % 1020,9 hPa 0,0 l/m 1 min 0 min 142 W/m 6,3 km/h (2 Bft)
08.03.2015 16:50 18,6 C 14,4 C 38 % 1020,9 hPa 0,0 l/m 1 min 0 min 142 W/m 4,2 km/h (1 Bft)
08.03.2015 16:51 18,6 C 15,0 C 38 % 1020,9 hPa 0,0 l/m 1 min 0 min 141 W/m 6,3 km/h (2 Bft)
08.03.2015 16:52 18,6 C 14,4 C 38 % 1020,9 hPa 0,0 l/m 1 min 0 min 132 W/m 6,3 km/h (2 Bft)
08.03.2015 16:53 18,6 C 14,4 C 39 % 1021,0 hPa 0,0 l/m 1 min 0 min 126 W/m 10,5 km/h (2 Bft)
08.03.2015 16:54 18,6 C 14,4 C 39 % 1020,9 hPa 0,0 l/m 1 min 0 min 127 W/m 10,5 km/h (2 Bft)
08.03.2015 16:55 18,6 C 14,4 C 39 % 1021,0 hPa 0,0 l/m 1 min 0 min 127 W/m 10,5 km/h (2 Bft)
08.03.2015 16:56 18,5 C 14,4 C 39 % 1020,9 hPa 0,0 l/m 1 min 0 min 125 W/m 8,4 km/h (2 Bft)
08.03.2015 16:57 18,5 C 13,9 C 39 % 1020,9 hPa 0,0 l/m 1 min 0 min 121 W/m 12,6 km/h (3 Bft)
08.03.2015 16:58 18,5 C 13,9 C 39 % 1020,9 hPa 0,0 l/m 1 min 0 min 118 W/m 12,6 km/h (3 Bft)
08.03.2015 16:59 18,5 C 13,9 C 38 % 1020,8 hPa 0,0 l/m 1 min 0 min 114 W/m 12,6 km/h (3 Bft)
08.03.2015 17:00 18,5 C 13,9 C 39 % 1020,8 hPa 0,0 l/m 1 min 0 min 114 W/m 8,4 km/h (2 Bft)
08.03.2015 17:01 18,4 C 13,9 C 39 % 1020,8 hPa 0,0 l/m 1 min 0 min 114 W/m 10,5 km/h (2 Bft)
08.03.2015 17:02 18,4 C 13,9 C 39 % 1020,8 hPa 0,0 l/m 1 min 0 min 113 W/m 10,5 km/h (2 Bft)
08.03.2015 17:03 18,4 C 13,9 C 40 % 1020,8 hPa 0,0 l/m 1 min 0 min 113 W/m 10,5 km/h (2 Bft)
08.03.2015 17:04 18,4 C 13,9 C 40 % 1020,8 hPa 0,0 l/m 1 min 0 min 114 W/m 10,5 km/h (2 Bft)
08.03.2015 17:05 18,4 C 13,9 C 40 % 1020,9 hPa 0,0 l/m 1 min 0 min 109 W/m 8,4 km/h (2 Bft)
08.03.2015 17:06 18,3 C 13,9 C 40 % 1020,8 hPa 0,0 l/m 1 min 0 min 109 W/m 6,3 km/h (2 Bft)
08.03.2015 17:07 18,3 C 13,9 C 40 % 1020,9 hPa 0,0 l/m 1 min 0 min 109 W/m 6,3 km/h (2 Bft)
08.03.2015 17:08 18,3 C 13,3 C 41 % 1020,9 hPa 0,0 l/m 1 min 0 min 107 W/m 4,2 km/h (1 Bft)
08.03.2015 17:09 18,3 C 13,9 C 40 % 1020,9 hPa 0,0 l/m 1 min 0 min 105 W/m 6,3 km/h (2 Bft)
08.03.2015 17:10 18,2 C 13,9 C 40 % 1021,0 hPa 0,0 l/m 1 min 0 min 104 W/m 8,4 km/h (2 Bft)
08.03.2015 17:11 18,2 C 13,9 C 40 % 1021,0 hPa 0,0 l/m 1 min 0 min 104 W/m 8,4 km/h (2 Bft)
08.03.2015 17:12 18,2 C 13,9 C 40 % 1021,0 hPa 0,0 l/m 1 min 0 min 100 W/m 4,2 km/h (1 Bft)
08.03.2015 17:13 18,2 C 13,9 C 40 % 1021,0 hPa 0,0 l/m 1 min 0 min 98 W/m 4,2 km/h (1 Bft)
08.03.2015 17:14 18,2 C 13,9 C 40 % 1021,0 hPa 0,0 l/m 1 min 0 min 95 W/m 10,5 km/h (2 Bft)
08.03.2015 17:15 18,2 C 13,9 C 40 % 1021,0 hPa 0,0 l/m 1 min 0 min 93 W/m 10,5 km/h (2 Bft)
08.03.2015 17:16 18,2 C 13,9 C 40 % 1021,1 hPa 0,0 l/m 1 min 0 min 91 W/m 8,4 km/h (2 Bft)
08.03.2015 17:18 18,1 C 13,9 C 40 % 1021,1 hPa 0,0 l/m 2 min 0 min 91 W/m 6,3 km/h (2 Bft)
08.03.2015 17:20 18,1 C 13,9 C 41 % 1021,1 hPa 0,0 l/m 2 min 0 min 93 W/m 6,3 km/h (2 Bft)
08.03.2015 17:22 18,0 C 13,3 C 42 % 1021,1 hPa 0,0 l/m 2 min 0 min 97 W/m 8,4 km/h (2 Bft)
08.03.2015 17:24 17,9 C 13,3 C 42 % 1021,0 hPa 0,0 l/m 2 min 0 min 97 W/m 8,4 km/h (2 Bft)
08.03.2015 17:26 17,9 C 13,3 C 42 % 1020,9 hPa 0,0 l/m 2 min 0 min 94 W/m 12,6 km/h (3 Bft)
08.03.2015 17:28 17,9 C 13,3 C 42 % 1020,8 hPa 0,0 l/m 2 min 0 min 88 W/m 10,5 km/h (2 Bft)
08.03.2015 17:30 17,8 C 13,3 C 42 % 1020,7 hPa 0,0 l/m 2 min 0 min 83 W/m 10,5 km/h (2 Bft)
08.03.2015 17:32 17,8 C 12,8 C 42 % 1020,6 hPa 0,0 l/m 2 min 0 min 78 W/m 10,5 km/h (2 Bft)
08.03.2015 17:34 17,7 C 12,8 C 42 % 1020,6 hPa 0,0 l/m 2 min 0 min 75 W/m 10,5 km/h (2 Bft)
08.03.2015 17:36 17,7 C 12,8 C 42 % 1020,7 hPa 0,0 l/m 2 min 0 min 73 W/m 12,6 km/h (3 Bft)
08.03.2015 17:38 17,6 C 12,8 C 42 % 1020,7 hPa 0,0 l/m 2 min 0 min 69 W/m 8,4 km/h (2 Bft)
08.03.2015 17:40 17,6 C 12,8 C 42 % 1020,9 hPa 0,0 l/m 2 min 0 min 64 W/m 4,2 km/h (1 Bft)
08.03.2015 17:42 17,6 C 12,2 C 42 % 1020,9 hPa 0,0 l/m 2 min 0 min 62 W/m 6,3 km/h (2 Bft)
08.03.2015 17:44 17,5 C 12,2 C 43 % 1020,9 hPa 0,0 l/m 2 min 0 min 59 W/m 6,3 km/h (2 Bft)
08.03.2015 17:46 17,5 C 12,2 C 42 % 1020,9 hPa 0,0 l/m 2 min 0 min 55 W/m 8,4 km/h (2 Bft)
08.03.2015 17:48 17,4 C 12,2 C 42 % 1020,7 hPa 0,0 l/m 2 min 0 min 52 W/m 8,4 km/h (2 Bft)
08.03.2015 17:50 17,4 C 12,2 C 43 % 1020,7 hPa 0,0 l/m 2 min 0 min 48 W/m 8,4 km/h (2 Bft)
08.03.2015 17:52 17,3 C 11,7 C 43 % 1020,7 hPa 0,0 l/m 2 min 0 min 45 W/m 10,5 km/h (2 Bft)
08.03.2015 17:54 17,3 C 11,7 C 43 % 1020,9 hPa 0,0 l/m 2 min 0 min 41 W/m 6,3 km/h (2 Bft)
08.03.2015 17:56 17,3 C 11,1 C 43 % 1020,9 hPa 0,0 l/m 2 min 0 min 37 W/m 6,3 km/h (2 Bft)
08.03.2015 17:58 17,2 C 11,1 C 43 % 1021,0 hPa 0,0 l/m 2 min 0 min 34 W/m 4,2 km/h (1 Bft)
08.03.2015 18:00 17,2 C 11,1 C 44 % 1021,0 hPa 0,0 l/m 2 min 0 min 30 W/m 6,3 km/h (2 Bft)
08.03.2015 18:02 17,1 C 10,6 C 44 % 1021,0 hPa 0,0 l/m 2 min 0 min 26 W/m 6,3 km/h (2 Bft)
08.03.2015 18:06 17,0 C 10,6 C 44 % 1021,0 hPa 0,0 l/m 2 min 0 min 24 W/m 6,3 km/h (2 Bft)
08.03.2015 18:08 16,9 C 10,0 C 46 % 1021,0 hPa 0,0 l/m 2 min 0 min 21 W/m 6,3 km/h (2 Bft)
08.03.2015 18:10 16,8 C 10,0 C 47 % 1021,0 hPa 0,0 l/m 2 min 0 min 21 W/m 4,2 km/h (1 Bft)
08.03.2015 18:12 16,8 C 10,0 C 47 % 1021,0 hPa 0,0 l/m 2 min 0 min 19 W/m 4,2 km/h (1 Bft)
08.03.2015 18:14 16,7 C 10,0 C 47 % 1021,0 hPa 0,0 l/m 2 min 0 min 19 W/m 4,2 km/h (1 Bft)
08.03.2015 18:16 16,6 C 9,4 C 48 % 1021,0 hPa 0,0 l/m 0 min 0 min 17 W/m 4,2 km/h (1 Bft)
08.03.2015 18:18 16,5 C 9,4 C 47 % 1021,0 hPa 0,0 l/m 0 min 0 min 16 W/m 4,2 km/h (1 Bft)
08.03.2015 18:20 16,4 C 9,4 C 48 % 1021,0 hPa 0,0 l/m 0 min 0 min 14 W/m 4,2 km/h (1 Bft)
08.03.2015 18:22 16,3 C 9,4 C 49 % 1021,1 hPa 0,0 l/m 0 min 0 min 12 W/m 4,2 km/h (1 Bft)
08.03.2015 18:24 16,2 C 9,4 C 50 % 1021,1 hPa 0,0 l/m 0 min 0 min 12 W/m 8,4 km/h (2 Bft)
08.03.2015 18:26 16,1 C 9,4 C 50 % 1021,2 hPa 0,0 l/m 0 min 0 min 14 W/m 6,3 km/h (2 Bft)
08.03.2015 18:28 16,0 C 9,4 C 50 % 1021,2 hPa 0,0 l/m 0 min 0 min 14 W/m 6,3 km/h (2 Bft)
08.03.2015 18:30 15,9 C 8,9 C 50 % 1021,2 hPa 0,0 l/m 0 min 0 min 14 W/m 6,3 km/h (2 Bft)
08.03.2015 18:32 15,8 C 8,9 C 50 % 1021,2 hPa 0,0 l/m 0 min 0 min 12 W/m 6,3 km/h (2 Bft)
08.03.2015 18:34 15,7 C 8,9 C 51 % 1021,2 hPa 0,0 l/m 0 min 0 min 10 W/m 4,2 km/h (1 Bft)
08.03.2015 18:36 15,5 C 8,9 C 51 % 1021,3 hPa 0,0 l/m 0 min 0 min 6 W/m 4,2 km/h (1 Bft)
08.03.2015 18:38 15,4 C 8,9 C 52 % 1021,4 hPa 0,0 l/m 0 min 0 min 3 W/m 4,2 km/h (1 Bft)
08.03.2015 18:40 15,3 C 8,9 C 52 % 1021,3 hPa 0,0 l/m 0 min 0 min 0 W/m 6,3 km/h (2 Bft)
08.03.2015 18:42 15,2 C 8,3 C 52 % 1021,3 hPa 0,0 l/m 0 min 0 min 0 W/m 10,5 km/h (2 Bft)
08.03.2015 18:44 15,1 C 8,3 C 53 % 1021,3 hPa 0,0 l/m 0 min 0 min 0 W/m 6,3 km/h (2 Bft)
08.03.2015 18:46 15,0 C 8,3 C 53 % 1021,1 hPa 0,0 l/m 0 min 0 min 0 W/m 4,2 km/h (1 Bft)
08.03.2015 18:48 14,9 C 8,3 C 53 % 1021,1 hPa 0,0 l/m 0 min 0 min 0 W/m 6,3 km/h (2 Bft)
08.03.2015 18:50 14,8 C 7,8 C 53 % 1021,1 hPa 0,0 l/m 0 min 0 min 0 W/m 6,3 km/h (2 Bft)
08.03.2015 18:52 14,7 C 7,8 C 54 % 1021,1 hPa 0,0 l/m 0 min 0 min 0 W/m 6,3 km/h (2 Bft)
08.03.2015 18:54 14,6 C 7,8 C 54 % 1021,1 hPa 0,0 l/m 0 min 0 min 0 W/m 6,3 km/h (2 Bft)
08.03.2015 18:56 14,4 C 7,8 C 54 % 1021,1 hPa 0,0 l/m 0 min 0 min 0 W/m 6,3 km/h (2 Bft)
08.03.2015 18:58 14,3 C 7,8 C 54 % 1021,2 hPa 0,0 l/m 0 min 0 min 0 W/m 6,3 km/h (2 Bft)
08.03.2015 19:00 14,2 C 7,8 C 55 % 1021,3 hPa 0,0 l/m 0 min 0 min 0 W/m 4,2 km/h (1 Bft)
08.03.2015 19:02 14,2 C 7,8 C 56 % 1021,3 hPa 0,0 l/m 0 min 0 min 0 W/m 4,2 km/h (1 Bft)
08.03.2015 19:04 13,9 C 7,2 C 56 % 1021,3 hPa 0,0 l/m 0 min 0 min 0 W/m 4,2 km/h (1 Bft)
08.03.2015 19:06 13,8 C 7,2 C 56 % 1021,3 hPa 0,0 l/m 0 min 0 min 0 W/m 4,2 km/h (1 Bft)
08.03.2015 19:08 13,7 C 7,2 C 56 % 1021,3 hPa 0,0 l/m 0 min 0 min 0 W/m 4,2 km/h (1 Bft)
08.03.2015 19:10 13,6 C 7,2 C 56 % 1021,3 hPa 0,0 l/m 0 min 0 min 0 W/m 4,2 km/h (1 Bft)
08.03.2015 19:12 13,5 C 7,2 C 56 % 1021,3 hPa 0,0 l/m 0 min 0 min 0 W/m 4,2 km/h (1 Bft)
08.03.2015 19:14 13,4 C 7,2 C 56 % 1021,3 hPa 0,0 l/m 0 min 0 min 0 W/m 4,2 km/h (1 Bft)
08.03.2015 19:16 13,3 C 7,2 C 57 % 1021,4 hPa 0,0 l/m 0 min 0 min 0 W/m 4,2 km/h (1 Bft)
08.03.2015 19:18 13,2 C 7,2 C 58 % 1021,4 hPa 0,0 l/m 0 min 0 min 0 W/m 6,3 km/h (2 Bft)
08.03.2015 19:20 13,1 C 6,7 C 58 % 1021,4 hPa 0,0 l/m 0 min 0 min 0 W/m 4,2 km/h (1 Bft)
08.03.2015 19:22 12,9 C 6,7 C 58 % 1021,5 hPa 0,0 l/m 0 min 0 min 0 W/m 2,1 km/h (1 Bft)
08.03.2015 19:24 12,8 C 6,7 C 59 % 1021,5 hPa 0,0 l/m 0 min 0 min 0 W/m 4,2 km/h (1 Bft)
08.03.2015 19:26 12,7 C 6,7 C 59 % 1021,5 hPa 0,0 l/m 0 min 0 min 0 W/m 4,2 km/h (1 Bft)
08.03.2015 19:28 12,6 C 6,7 C 59 % 1021,5 hPa 0,0 l/m 0 min 0 min 0 W/m 4,2 km/h (1 Bft)
08.03.2015 19:30 12,4 C 6,7 C 60 % 1021,6 hPa 0,0 l/m 0 min 0 min 0 W/m 6,3 km/h (2 Bft)
08.03.2015 19:32 12,3 C 6,7 C 60 % 1021,6 hPa 0,0 l/m 0 min 0 min 0 W/m 6,3 km/h (2 Bft)
08.03.2015 19:34 12,2 C 6,7 C 61 % 1021,6 hPa 0,0 l/m 0 min 0 min 0 W/m 4,2 km/h (1 Bft)
08.03.2015 19:36 12,1 C 6,7 C 61 % 1021,6 hPa 0,0 l/m 0 min 0 min 0 W/m 4,2 km/h (1 Bft)
08.03.2015 19:38 11,9 C 6,1 C 61 % 1021,7 hPa 0,0 l/m 0 min 0 min 0 W/m 6,3 km/h (2 Bft)
08.03.2015 19:40 11,8 C 6,1 C 61 % 1021,7 hPa 0,0 l/m 0 min 0 min 0 W/m 4,2 km/h (1 Bft)
08.03.2015 19:42 11,7 C 6,1 C 62 % 1021,6 hPa 0,0 l/m 0 min 0 min 0 W/m 4,2 km/h (1 Bft)
08.03.2015 19:44 11,7 C 6,1 C 62 % 1021,6 hPa 0,0 l/m 0 min 0 min 0 W/m 4,2 km/h (1 Bft)
08.03.2015 19:46 11,6 C 6,1 C 62 % 1021,6 hPa 0,0 l/m 0 min 0 min 0 W/m 4,2 km/h (1 Bft)
08.03.2015 19:48 11,4 C 6,1 C 62 % 1021,6 hPa 0,0 l/m 0 min 0 min 0 W/m 4,2 km/h (1 Bft)
08.03.2015 19:50 11,3 C 6,1 C 62 % 1021,6 hPa 0,0 l/m 0 min 0 min 0 W/m 4,2 km/h (1 Bft)
08.03.2015 19:52 11,2 C 5,6 C 62 % 1021,7 hPa 0,0 l/m 0 min 0 min 0 W/m 4,2 km/h (1 Bft)
08.03.2015 19:54 11,1 C 5,6 C 63 % 1021,7 hPa 0,0 l/m 0 min 0 min 0 W/m 4,2 km/h (1 Bft)
08.03.2015 19:56 11,1 C 5,6 C 63 % 1021,7 hPa 0,0 l/m 0 min 0 min 0 W/m 4,2 km/h (1 Bft)
08.03.2015 19:58 10,9 C 5,6 C 63 % 1021,7 hPa 0,0 l/m 0 min 0 min 0 W/m 4,2 km/h (1 Bft)
08.03.2015 20:00 10,8 C 5,6 C 63 % 1021,7 hPa 0,0 l/m 0 min 0 min 0 W/m 4,2 km/h (1 Bft)
08.03.2015 20:02 10,7 C 5,6 C 63 % 1021,7 hPa 0,0 l/m 0 min 0 min 0 W/m 4,2 km/h (1 Bft)
08.03.2015 20:04 10,6 C 5,6 C 64 % 1021,7 hPa 0,0 l/m 0 min 0 min 0 W/m 4,2 km/h (1 Bft)
08.03.2015 20:06 10,5 C 5,6 C 64 % 1021,7 hPa 0,0 l/m 0 min 0 min 0 W/m 4,2 km/h (1 Bft)
08.03.2015 20:08 10,4 C 5,6 C 64 % 1021,7 hPa 0,0 l/m 0 min 0 min 0 W/m 4,2 km/h (1 Bft)
08.03.2015 20:10 10,3 C 5,6 C 64 % 1021,7 hPa 0,0 l/m 0 min 0 min 0 W/m 4,2 km/h (1 Bft)
08.03.2015 20:12 10,2 C 5,0 C 64 % 1021,7 hPa 0,0 l/m 0 min 0 min 0 W/m 4,2 km/h (1 Bft)
08.03.2015 20:14 10,2 C 5,0 C 64 % 1021,6 hPa 0,0 l/m 0 min 0 min 0 W/m 4,2 km/h (1 Bft)
08.03.2015 20:16 10,1 C 5,0 C 65 % 1021,7 hPa 0,0 l/m 0 min 0 min 0 W/m 4,2 km/h (1 Bft)
08.03.2015 20:18 10,0 C 5,0 C 65 % 1021,6 hPa 0,0 l/m 0 min 0 min 0 W/m 4,2 km/h (1 Bft)
08.03.2015 20:20 9,9 C 5,0 C 65 % 1021,7 hPa 0,0 l/m 0 min 0 min 0 W/m 4,2 km/h (1 Bft)
08.03.2015 20:22 9,9 C 5,0 C 65 % 1021,8 hPa 0,0 l/m 0 min 0 min 0 W/m 2,1 km/h (1 Bft)
08.03.2015 20:24 9,8 C 5,0 C 65 % 1021,8 hPa 0,0 l/m 0 min 0 min 0 W/m 4,2 km/h (1 Bft)
08.03.2015 20:26 9,7 C 5,0 C 65 % 1021,9 hPa 0,0 l/m 0 min 0 min 0 W/m 2,1 km/h (1 Bft)
08.03.2015 20:28 9,6 C 5,0 C 65 % 1021,9 hPa 0,0 l/m 0 min 0 min 0 W/m 2,1 km/h (1 Bft)
08.03.2015 20:30 9,6 C 5,0 C 65 % 1021,9 hPa 0,0 l/m 0 min 0 min 0 W/m 2,1 km/h (1 Bft)
08.03.2015 20:32 9,5 C 5,0 C 66 % 1021,9 hPa 0,0 l/m 0 min 0 min 0 W/m 4,2 km/h (1 Bft)
08.03.2015 20:34 9,4 C 5,0 C 66 % 1022,0 hPa 0,0 l/m 0 min 0 min 0 W/m 4,2 km/h (1 Bft)
08.03.2015 20:36 9,4 C 5,0 C 66 % 1022,1 hPa 0,0 l/m 0 min 0 min 0 W/m 6,3 km/h (2 Bft)
08.03.2015 20:38 9,3 C 5,0 C 66 % 1022,2 hPa 0,0 l/m 0 min 0 min 0 W/m 4,2 km/h (1 Bft)
08.03.2015 20:40 9,2 C 4,4 C 66 % 1022,2 hPa 0,0 l/m 0 min 0 min 0 W/m 6,3 km/h (2 Bft)
08.03.2015 20:42 9,2 C 4,4 C 67 % 1022,3 hPa 0,0 l/m 0 min 0 min 0 W/m 6,3 km/h (2 Bft)
08.03.2015 20:44 9,1 C 4,4 C 67 % 1022,3 hPa 0,0 l/m 0 min 0 min 0 W/m 6,3 km/h (2 Bft)
08.03.2015 20:46 9,1 C 4,4 C 67 % 1022,3 hPa 0,0 l/m 0 min 0 min 0 W/m 6,3 km/h (2 Bft)
08.03.2015 20:48 9,0 C 4,4 C 67 % 1022,3 hPa 0,0 l/m 0 min 0 min 0 W/m 6,3 km/h (2 Bft)
08.03.2015 20:50 8,9 C 4,4 C 67 % 1022,3 hPa 0,0 l/m 0 min 0 min 0 W/m 4,2 km/h (1 Bft)
08.03.2015 20:52 8,9 C 4,4 C 68 % 1022,4 hPa 0,0 l/m 0 min 0 min 0 W/m 6,3 km/h (2 Bft)
08.03.2015 20:54 8,8 C 4,4 C 68 % 1022,4 hPa 0,0 l/m 0 min 0 min 0 W/m 10,5 km/h (2 Bft)
08.03.2015 20:56 8,8 C 4,4 C 68 % 1022,5 hPa 0,0 l/m 0 min 0 min 0 W/m 8,4 km/h (2 Bft)
08.03.2015 20:58 8,7 C 4,4 C 68 % 1022,5 hPa 0,0 l/m 0 min 0 min 0 W/m 8,4 km/h (2 Bft)
08.03.2015 21:00 8,7 C 4,4 C 68 % 1022,5 hPa 0,0 l/m 0 min 0 min 0 W/m 6,3 km/h (2 Bft)
08.03.2015 21:02 8,7 C 5,0 C 69 % 1022,6 hPa 0,0 l/m 0 min 0 min 0 W/m 8,4 km/h (2 Bft)
08.03.2015 21:04 8,6 C 5,0 C 69 % 1022,6 hPa 0,0 l/m 0 min 0 min 0 W/m 10,5 km/h (2 Bft)
08.03.2015 21:06 8,6 C 5,0 C 69 % 1022,8 hPa 0,0 l/m 0 min 0 min 0 W/m 16,7 km/h (3 Bft)
08.03.2015 21:08 8,6 C 6,1 C 70 % 1022,8 hPa 0,0 l/m 0 min 0 min 0 W/m 23,0 km/h (4 Bft)
08.03.2015 21:10 8,7 C 7,2 C 70 % 1022,9 hPa 0,0 l/m 0 min 0 min 0 W/m 23,0 km/h (4 Bft)
08.03.2015 21:12 8,7 C 7,2 C 71 % 1023,0 hPa 0,0 l/m 0 min 0 min 0 W/m 14,6 km/h (3 Bft)
08.03.2015 21:14 8,8 C 7,2 C 71 % 1023,0 hPa 0,0 l/m 0 min 0 min 0 W/m 16,7 km/h (3 Bft)
08.03.2015 21:16 8,9 C 7,2 C 71 % 1023,1 hPa 0,0 l/m 0 min 0 min 0 W/m 16,7 km/h (3 Bft)
08.03.2015 21:18 8,9 C 7,2 C 72 % 1023,1 hPa 0,0 l/m 0 min 0 min 0 W/m 18,8 km/h (3 Bft)
08.03.2015 21:20 9,1 C 7,2 C 72 % 1023,1 hPa 0,0 l/m 0 min 0 min 0 W/m 12,6 km/h (3 Bft)
08.03.2015 21:22 9,2 C 7,2 C 72 % 1023,1 hPa 0,0 l/m 0 min 0 min 0 W/m 14,6 km/h (3 Bft)
08.03.2015 21:24 9,2 C 7,2 C 72 % 1023,1 hPa 0,0 l/m 0 min 0 min 0 W/m 14,6 km/h (3 Bft)
08.03.2015 21:26 9,3 C 7,2 C 73 % 1023,1 hPa 0,0 l/m 0 min 0 min 0 W/m 14,6 km/h (3 Bft)
08.03.2015 21:28 9,4 C 7,2 C 73 % 1023,1 hPa 0,0 l/m 0 min 0 min 0 W/m 10,5 km/h (2 Bft)
08.03.2015 21:30 9,4 C 7,2 C 73 % 1023,1 hPa 0,0 l/m 0 min 0 min 0 W/m 10,5 km/h (2 Bft)
08.03.2015 21:32 9,5 C 6,7 C 74 % 1023,1 hPa 0,0 l/m 0 min 0 min 0 W/m 10,5 km/h (2 Bft)
08.03.2015 21:34 9,6 C 6,7 C 74 % 1023,1 hPa 0,0 l/m 0 min 0 min 0 W/m 10,5 km/h (2 Bft)
08.03.2015 21:36 9,6 C 6,7 C 74 % 1023,1 hPa 0,0 l/m 0 min 0 min 0 W/m 10,5 km/h (2 Bft)
08.03.2015 21:38 9,7 C 6,7 C 74 % 1023,1 hPa 0,0 l/m 0 min 0 min 0 W/m 8,4 km/h (2 Bft)
08.03.2015 21:40 9,7 C 7,2 C 75 % 1023,1 hPa 0,0 l/m 0 min 0 min 0 W/m 10,5 km/h (2 Bft)
08.03.2015 21:42 9,7 C 7,2 C 75 % 1023,1 hPa 0,0 l/m 0 min 0 min 0 W/m 10,5 km/h (2 Bft)
08.03.2015 21:44 9,7 C 7,2 C 75 % 1023,1 hPa 0,0 l/m 0 min 0 min 0 W/m 8,4 km/h (2 Bft)
08.03.2015 21:46 9,8 C 7,2 C 75 % 1023,2 hPa 0,0 l/m 0 min 0 min 0 W/m 8,4 km/h (2 Bft)
08.03.2015 21:48 9,8 C 6,7 C 75 % 1023,2 hPa 0,0 l/m 0 min 0 min 0 W/m 8,4 km/h (2 Bft)
08.03.2015 21:50 9,8 C 6,7 C 75 % 1023,2 hPa 0,0 l/m 0 min 0 min 0 W/m 8,4 km/h (2 Bft)
08.03.2015 21:52 9,8 C 6,1 C 75 % 1023,2 hPa 0,0 l/m 0 min 0 min 0 W/m 6,3 km/h (2 Bft)
08.03.2015 21:54 9,8 C 6,1 C 75 % 1023,1 hPa 0,0 l/m 0 min 0 min 0 W/m 4,2 km/h (1 Bft)
08.03.2015 21:56 9,8 C 5,6 C 75 % 1023,1 hPa 0,0 l/m 0 min 0 min 0 W/m 6,3 km/h (2 Bft)
08.03.2015 21:58 9,7 C 5,6 C 75 % 1023,1 hPa 0,0 l/m 0 min 0 min 0 W/m 4,2 km/h (1 Bft)
08.03.2015 22:00 9,7 C 5,6 C 75 % 1023,1 hPa 0,0 l/m 0 min 0 min 0 W/m 4,2 km/h (1 Bft)
08.03.2015 22:02 9,7 C 5,0 C 74 % 1023,1 hPa 0,0 l/m 0 min 0 min 0 W/m 4,2 km/h (1 Bft)
08.03.2015 22:04 9,7 C 5,0 C 74 % 1023,2 hPa 0,0 l/m 0 min 0 min 0 W/m 6,3 km/h (2 Bft)
08.03.2015 22:06 9,6 C 5,0 C 74 % 1023,2 hPa 0,0 l/m 0 min 0 min 0 W/m 6,3 km/h (2 Bft)
08.03.2015 22:08 9,6 C 5,0 C 75 % 1023,3 hPa 0,0 l/m 0 min 0 min 0 W/m 8,4 km/h (2 Bft)
08.03.2015 22:10 9,5 C 5,0 C 75 % 1023,3 hPa 0,0 l/m 0 min 0 min 0 W/m 10,5 km/h (2 Bft)
08.03.2015 22:12 9,4 C 5,0 C 75 % 1023,4 hPa 0,0 l/m 0 min 0 min 0 W/m 10,5 km/h (2 Bft)
08.03.2015 22:14 9,4 C 5,0 C 75 % 1023,5 hPa 0,0 l/m 0 min 0 min 0 W/m 6,3 km/h (2 Bft)
08.03.2015 22:16 9,4 C 5,6 C 76 % 1023,6 hPa 0,0 l/m 0 min 0 min 0 W/m 16,7 km/h (3 Bft)
08.03.2015 22:18 9,3 C 6,1 C 77 % 1023,7 hPa 0,0 l/m 0 min 0 min 0 W/m 23,0 km/h (4 Bft)
08.03.2015 22:20 9,3 C 6,7 C 78 % 1023,8 hPa 0,0 l/m 0 min 0 min 0 W/m 23,0 km/h (4 Bft)
08.03.2015 22:22 9,3 C 6,7 C 79 % 1023,8 hPa 0,0 l/m 0 min 0 min 0 W/m 16,7 km/h (3 Bft)
08.03.2015 22:24 9,3 C 6,7 C 79 % 1023,7 hPa 0,0 l/m 0 min 0 min 0 W/m 12,6 km/h (3 Bft)
08.03.2015 22:26 9,2 C 6,7 C 80 % 1023,7 hPa 0,0 l/m 0 min 0 min 0 W/m 12,6 km/h (3 Bft)
08.03.2015 22:28 9,2 C 6,7 C 80 % 1023,7 hPa 0,0 l/m 0 min 0 min 0 W/m 14,6 km/h (3 Bft)
08.03.2015 22:30 9,2 C 6,1 C 80 % 1023,8 hPa 0,0 l/m 0 min 0 min 0 W/m 10,5 km/h (2 Bft)
08.03.2015 22:32 9,1 C 6,1 C 81 % 1023,7 hPa 0,0 l/m 0 min 0 min 0 W/m 4,2 km/h (1 Bft)
08.03.2015 22:34 9,1 C 6,1 C 81 % 1023,7 hPa 0,0 l/m 0 min 0 min 0 W/m 8,4 km/h (2 Bft)
08.03.2015 22:36 9,1 C 5,6 C 81 % 1023,7 hPa 0,0 l/m 0 min 0 min 0 W/m 6,3 km/h (2 Bft)
08.03.2015 22:38 9,1 C 5,6 C 81 % 1023,9 hPa 0,0 l/m 0 min 0 min 0 W/m 10,5 km/h (2 Bft)
08.03.2015 22:40 9,0 C 5,6 C 81 % 1023,9 hPa 0,0 l/m 0 min 0 min 0 W/m 14,6 km/h (3 Bft)
08.03.2015 22:42 9,0 C 5,0 C 81 % 1024,0 hPa 0,0 l/m 0 min 0 min 0 W/m 4,2 km/h (1 Bft)
08.03.2015 22:44 8,9 C 5,0 C 81 % 1024,0 hPa 0,0 l/m 0 min 0 min 0 W/m 6,3 km/h (2 Bft)
08.03.2015 22:46 8,9 C 5,0 C 81 % 1024,0 hPa 0,0 l/m 0 min 0 min 0 W/m 8,4 km/h (2 Bft)
08.03.2015 22:48 8,8 C 5,0 C 81 % 1024,1 hPa 0,0 l/m 0 min 0 min 0 W/m 8,4 km/h (2 Bft)
08.03.2015 22:50 8,8 C 5,0 C 81 % 1024,1 hPa 0,0 l/m 0 min 0 min 0 W/m 6,3 km/h (2 Bft)
08.03.2015 22:52 8,8 C 5,0 C 81 % 1024,0 hPa 0,0 l/m 0 min 0 min 0 W/m 6,3 km/h (2 Bft)
08.03.2015 22:54 8,7 C 5,0 C 81 % 1024,0 hPa 0,0 l/m 0 min 0 min 0 W/m 4,2 km/h (1 Bft)
08.03.2015 22:56 8,7 C 4,4 C 81 % 1024,1 hPa 0,0 l/m 0 min 0 min 0 W/m 4,2 km/h (1 Bft)
08.03.2015 22:58 8,7 C 4,4 C 81 % 1024,1 hPa 0,0 l/m 0 min 0 min 0 W/m 2,1 km/h (1 Bft)
08.03.2015 23:00 8,6 C 4,4 C 81 % 1024,1 hPa 0,0 l/m 0 min 0 min 0 W/m 2,1 km/h (1 Bft)
08.03.2015 23:02 8,6 C 4,4 C 81 % 1024,0 hPa 0,0 l/m 0 min 0 min 0 W/m 2,1 km/h (1 Bft)
08.03.2015 23:04 8,5 C 4,4 C 81 % 1024,0 hPa 0,0 l/m 0 min 0 min 0 W/m 2,1 km/h (1 Bft)
08.03.2015 23:06 8,4 C 4,4 C 81 % 1024,1 hPa 0,0 l/m 0 min 0 min 0 W/m 4,2 km/h (1 Bft)
08.03.2015 23:08 8,3 C 4,4 C 81 % 1024,1 hPa 0,0 l/m 0 min 0 min 0 W/m 8,4 km/h (2 Bft)
08.03.2015 23:10 8,3 C 4,4 C 81 % 1024,1 hPa 0,0 l/m 0 min 0 min 0 W/m 6,3 km/h (2 Bft)
08.03.2015 23:12 8,2 C 4,4 C 81 % 1024,1 hPa 0,0 l/m 0 min 0 min 0 W/m 6,3 km/h (2 Bft)
08.03.2015 23:14 8,2 C 4,4 C 81 % 1024,1 hPa 0,0 l/m 0 min 0 min 0 W/m 4,2 km/h (1 Bft)
08.03.2015 23:16 8,1 C 4,4 C 81 % 1024,2 hPa 0,0 l/m 0 min 0 min 0 W/m 10,5 km/h (2 Bft)
08.03.2015 23:18 8,1 C 4,4 C 82 % 1024,1 hPa 0,0 l/m 0 min 0 min 0 W/m 8,4 km/h (2 Bft)
08.03.2015 23:20 8,0 C 4,4 C 81 % 1024,2 hPa 0,0 l/m 0 min 0 min 0 W/m 6,3 km/h (2 Bft)
08.03.2015 23:22 7,9 C 3,9 C 82 % 1024,2 hPa 0,0 l/m 0 min 0 min 0 W/m 6,3 km/h (2 Bft)
08.03.2015 23:24 7,9 C 3,9 C 82 % 1024,3 hPa 0,0 l/m 0 min 0 min 0 W/m 6,3 km/h (2 Bft)
08.03.2015 23:26 7,8 C 3,9 C 82 % 1024,3 hPa 0,0 l/m 0 min 0 min 0 W/m 6,3 km/h (2 Bft)
08.03.2015 23:28 7,8 C 3,9 C 82 % 1024,2 hPa 0,0 l/m 0 min 0 min 0 W/m 6,3 km/h (2 Bft)
08.03.2015 23:30 7,8 C 3,9 C 83 % 1024,1 hPa 0,0 l/m 0 min 0 min 0 W/m 6,3 km/h (2 Bft)
08.03.2015 23:32 7,7 C 3,9 C 83 % 1024,2 hPa 0,0 l/m 0 min 0 min 0 W/m 6,3 km/h (2 Bft)
08.03.2015 23:34 7,7 C 3,9 C 83 % 1024,3 hPa 0,0 l/m 0 min 0 min 0 W/m 4,2 km/h (1 Bft)
08.03.2015 23:36 7,6 C 3,9 C 83 % 1024,2 hPa 0,0 l/m 0 min 0 min 0 W/m 4,2 km/h (1 Bft)
08.03.2015 23:38 7,6 C 3,9 C 83 % 1024,1 hPa 0,0 l/m 0 min 0 min 0 W/m 2,1 km/h (1 Bft)
08.03.2015 23:40 7,6 C 3,9 C 83 % 1024,1 hPa 0,0 l/m 0 min 0 min 0 W/m 2,1 km/h (1 Bft)
08.03.2015 23:42 7,5 C 3,9 C 83 % 1024,0 hPa 0,0 l/m 0 min 0 min 0 W/m 0,0 km/h (0 Bft)
08.03.2015 23:44 7,4 C 3,9 C 84 % 1024,1 hPa 0,0 l/m 0 min 0 min 0 W/m 2,1 km/h (1 Bft)
08.03.2015 23:46 7,4 C 3,9 C 84 % 1024,1 hPa 0,0 l/m 0 min 0 min 0 W/m 4,2 km/h (1 Bft)
08.03.2015 23:48 7,4 C 3,3 C 84 % 1024,2 hPa 0,0 l/m 0 min 0 min 0 W/m 4,2 km/h (1 Bft)
08.03.2015 23:50 7,3 C 3,3 C 84 % 1024,1 hPa 0,0 l/m 0 min 0 min 0 W/m 4,2 km/h (1 Bft)
08.03.2015 23:52 7,3 C 3,3 C 84 % 1024,2 hPa 0,0 l/m 0 min 0 min 0 W/m 4,2 km/h (1 Bft)
08.03.2015 23:54 7,2 C 3,3 C 84 % 1024,2 hPa 0,0 l/m 0 min 0 min 0 W/m 4,2 km/h (1 Bft)
08.03.2015 23:56 7,2 C 3,3 C 84 % 1024,3 hPa 0,0 l/m 0 min 0 min 0 W/m 4,2 km/h (1 Bft)
08.03.2015 23:58 7,1 C 3,3 C 84 % 1024,3 hPa 0,0 l/m 0 min 0 min 0 W/m 4,2 km/h (1 Bft)
_ Min-Zeit 07:06 06:52 15:28 17:32 - - - - 23:42
Minimum _ 3,2 C 1,1 C 30 % 1020,6 hPa - - - - 0,0 km/h (0 Bft)
_ Max-Zeit 15:34 14:38 05:52 00:10 00:00 07:16 00:00 12:42 14:34
Maximum _ 19,9 C 20,0 C 87 % 1026,3 hPa 0,0 l/m 2 min 0 min 607 W/m 37,7 km/h
S (5 Bft)
Durchschnitt _ 10,2 C 7,2 C 67 % 1023,6 hPa #0,0 l/m #10:56 h #0 min. 334 W/m 12,8 km/h (3 Bft)
© 2015 W. Hausmann